<?xml version="1.0" encoding="UTF-8" standalone="no" ?>
<gpx xmlns="http://www.topografix.com/GPX/1/1" xmlns:xsi="http://www.w3.org/2001/XMLSchema-instance" xsi:schemaLocation="http://www.topografix.com/GPX/1/1 http://www.topografix.com/GPX/1/1/gpx.xsd" version="1.1" creator="VisuGPX - https://www.visugpx.com">
  <metadata>
    <name>2021-05-23 08:26:28</name>
    <desc><![CDATA[Palama, Ouides, Etoile, Grand Sanguin, Petit Sanguin, Etoile, Etoile sud, jardins entre les Mourets et la Parade. 
<p>Heure de départ: 08:26 23 mai 2021<br/>Heure d'arrivée: 12:10 23 mai 2021<br/>Distance: 25,8 km (03:44)<br/>Temps déplacement: 02:57<br/>Vitesse moyenne: 6,91 km/h<br/>Vitesse moyenne mouv.: 8,72 km/h<br/>Vitesse Max.: 34,82 km/h<br/>Altitude minimale: 134 m<br/>Altitude maximale: 574 m<br/>Vitesse de montée: 341,5 m/h<br/>Vitesse de descente: 619,5 m/h<br/>Gain d'altitude: 737 m<br/>Perte d'altitude: 704 m<br/>Temps de montée: 02:09<br/>Temps de descente: 01:08<br/></p><hr align="center" width="480" style="height: 2px; width: 517px"/>]]></desc>
  </metadata>
  <wpt lat="43.35152" lon="5.4444">
    <ele>142.49</ele>
    <name><![CDATA[0000155]]></name>
    <type><![CDATA[Point de départ]]></type>
  </wpt>
  <wpt lat="43.35162" lon="5.44436">
    <ele>138.58</ele>
    <name><![CDATA[0000156]]></name>
    <desc><![CDATA[<p><br /><h3>Nom: Segment: 1</h3><br />Heure de départ: 08:26 23 mai 2021<br/>Heure d'arrivée: 12:10 23 mai 2021<br/>Distance: 25,8km (03:44)<br/>Temps déplacement: 02:57<br/>Vitesse moyenne: 6,91 km/h<br/>Vitesse moyenne mouv.: 8,72 km/h<br/>Vitesse Max.: 34,82 km/h<br/>Altitude minimale: 134 m<br/>Altitude maximale: 574 m<br/>Vitesse de montée: 341,5 m/h<br/>Vitesse de descente: 619,5 m/h<br/>Gain d'altitude: 737 m<br/>Perte d'altitude: 704 m<br/>Temps de montée: 02:09<br/>Temps de descente: 01:08<br/></p>]]></desc>
    <type><![CDATA[Point d'arrivée]]></type>
  </wpt>
  <trk>
    <name><![CDATA[2021-05-23 08:26:28]]></name>
    <desc><![CDATA[<p>Heure de départ: 08:26 23 mai 2021<br/>Heure d'arrivée: 12:10 23 mai 2021<br/>Distance: 25,8 km (03:44)<br/>Temps déplacement: 02:57<br/>Vitesse moyenne: 6,91 km/h<br/>Vitesse moyenne mouv.: 8,72 km/h<br/>Vitesse Max.: 34,82 km/h<br/>Altitude minimale: 134 m<br/>Altitude maximale: 574 m<br/>Vitesse de montée: 341,5 m/h<br/>Vitesse de descente: 619,5 m/h<br/>Gain d'altitude: 737 m<br/>Perte d'altitude: 704 m<br/>Temps de montée: 02:09<br/>Temps de descente: 01:08<br/></p><hr align="center" width="480" style="height: 2px; width: 517px"/>]]></desc>
    <trkseg>
      <trkpt lat="43.35152" lon="5.4444">
        <ele>142.44</ele>
        <time>2021-05-23T06:26:30.000Z</time>
      </trkpt>
      <trkpt lat="43.35167" lon="5.44454">
        <ele>144.7</ele>
        <time>2021-05-23T06:27:43.000Z</time>
      </trkpt>
      <trkpt lat="43.35186" lon="5.44447">
        <ele>144.87</ele>
        <time>2021-05-23T06:28:04.000Z</time>
      </trkpt>
      <trkpt lat="43.35207" lon="5.44435">
        <ele>145.39</ele>
        <time>2021-05-23T06:28:08.000Z</time>
      </trkpt>
      <trkpt lat="43.35227" lon="5.44435">
        <ele>146.68</ele>
        <time>2021-05-23T06:28:13.000Z</time>
      </trkpt>
      <trkpt lat="43.35235" lon="5.44464">
        <ele>147.76</ele>
        <time>2021-05-23T06:28:17.000Z</time>
      </trkpt>
      <trkpt lat="43.35242" lon="5.44487">
        <ele>148.64</ele>
        <time>2021-05-23T06:28:20.000Z</time>
      </trkpt>
      <trkpt lat="43.35251" lon="5.44517">
        <ele>149.61</ele>
        <time>2021-05-23T06:28:24.000Z</time>
      </trkpt>
      <trkpt lat="43.35251" lon="5.44549">
        <ele>150.52</ele>
        <time>2021-05-23T06:28:28.000Z</time>
      </trkpt>
      <trkpt lat="43.35255" lon="5.44573">
        <ele>151.29</ele>
        <time>2021-05-23T06:28:31.000Z</time>
      </trkpt>
      <trkpt lat="43.35263" lon="5.44602">
        <ele>152.31</ele>
        <time>2021-05-23T06:28:35.000Z</time>
      </trkpt>
      <trkpt lat="43.35274" lon="5.44631">
        <ele>153.37</ele>
        <time>2021-05-23T06:28:39.000Z</time>
      </trkpt>
      <trkpt lat="43.35286" lon="5.44658">
        <ele>154.25</ele>
        <time>2021-05-23T06:28:43.000Z</time>
      </trkpt>
      <trkpt lat="43.35295" lon="5.44681">
        <ele>154.94</ele>
        <time>2021-05-23T06:28:46.000Z</time>
      </trkpt>
      <trkpt lat="43.35306" lon="5.44709">
        <ele>155.56</ele>
        <time>2021-05-23T06:28:50.000Z</time>
      </trkpt>
      <trkpt lat="43.35314" lon="5.44731">
        <ele>156.17</ele>
        <time>2021-05-23T06:28:53.000Z</time>
      </trkpt>
      <trkpt lat="43.35321" lon="5.44758">
        <ele>156.32</ele>
        <time>2021-05-23T06:28:56.000Z</time>
      </trkpt>
      <trkpt lat="43.35329" lon="5.44783">
        <ele>156.76</ele>
        <time>2021-05-23T06:28:59.000Z</time>
      </trkpt>
      <trkpt lat="43.35337" lon="5.44805">
        <ele>157.1</ele>
        <time>2021-05-23T06:29:02.000Z</time>
      </trkpt>
      <trkpt lat="43.35344" lon="5.44831">
        <ele>157.03</ele>
        <time>2021-05-23T06:29:05.000Z</time>
      </trkpt>
      <trkpt lat="43.35356" lon="5.44858">
        <ele>155.11</ele>
        <time>2021-05-23T06:29:08.000Z</time>
      </trkpt>
      <trkpt lat="43.35369" lon="5.44885">
        <ele>153.98</ele>
        <time>2021-05-23T06:29:11.000Z</time>
      </trkpt>
      <trkpt lat="43.35384" lon="5.44913">
        <ele>153.58</ele>
        <time>2021-05-23T06:29:14.000Z</time>
      </trkpt>
      <trkpt lat="43.35391" lon="5.4494">
        <ele>154.43</ele>
        <time>2021-05-23T06:29:17.000Z</time>
      </trkpt>
      <trkpt lat="43.35405" lon="5.44964">
        <ele>156.79</ele>
        <time>2021-05-23T06:29:21.000Z</time>
      </trkpt>
      <trkpt lat="43.35422" lon="5.44984">
        <ele>158.11</ele>
        <time>2021-05-23T06:29:25.000Z</time>
      </trkpt>
      <trkpt lat="43.35436" lon="5.45">
        <ele>158.75</ele>
        <time>2021-05-23T06:29:28.000Z</time>
      </trkpt>
      <trkpt lat="43.35455" lon="5.4502">
        <ele>159.5</ele>
        <time>2021-05-23T06:29:32.000Z</time>
      </trkpt>
      <trkpt lat="43.35472" lon="5.45041">
        <ele>160.42</ele>
        <time>2021-05-23T06:29:36.000Z</time>
      </trkpt>
      <trkpt lat="43.35489" lon="5.4506">
        <ele>160.91</ele>
        <time>2021-05-23T06:29:40.000Z</time>
      </trkpt>
      <trkpt lat="43.35505" lon="5.4508">
        <ele>161.4</ele>
        <time>2021-05-23T06:29:44.000Z</time>
      </trkpt>
      <trkpt lat="43.3552" lon="5.45097">
        <ele>161.86</ele>
        <time>2021-05-23T06:29:48.000Z</time>
      </trkpt>
      <trkpt lat="43.35532" lon="5.45117">
        <ele>162.07</ele>
        <time>2021-05-23T06:33:09.000Z</time>
      </trkpt>
      <trkpt lat="43.35547" lon="5.45132">
        <ele>161.92</ele>
        <time>2021-05-23T06:33:16.000Z</time>
      </trkpt>
      <trkpt lat="43.35562" lon="5.45148">
        <ele>162.18</ele>
        <time>2021-05-23T06:33:23.000Z</time>
      </trkpt>
      <trkpt lat="43.3558" lon="5.45152">
        <ele>162.97</ele>
        <time>2021-05-23T06:33:30.000Z</time>
      </trkpt>
      <trkpt lat="43.35585" lon="5.45127">
        <ele>163.63</ele>
        <time>2021-05-23T06:33:35.000Z</time>
      </trkpt>
      <trkpt lat="43.35589" lon="5.451">
        <ele>164.29</ele>
        <time>2021-05-23T06:33:41.000Z</time>
      </trkpt>
      <trkpt lat="43.35598" lon="5.45074">
        <ele>165.08</ele>
        <time>2021-05-23T06:33:47.000Z</time>
      </trkpt>
      <trkpt lat="43.35617" lon="5.45076">
        <ele>165.5</ele>
        <time>2021-05-23T06:33:52.000Z</time>
      </trkpt>
      <trkpt lat="43.35634" lon="5.45086">
        <ele>165.99</ele>
        <time>2021-05-23T06:33:57.000Z</time>
      </trkpt>
      <trkpt lat="43.35654" lon="5.45097">
        <ele>166.7</ele>
        <time>2021-05-23T06:34:03.000Z</time>
      </trkpt>
      <trkpt lat="43.35674" lon="5.45104">
        <ele>167.52</ele>
        <time>2021-05-23T06:34:09.000Z</time>
      </trkpt>
      <trkpt lat="43.35693" lon="5.4511">
        <ele>168.43</ele>
        <time>2021-05-23T06:34:15.000Z</time>
      </trkpt>
      <trkpt lat="43.357" lon="5.45085">
        <ele>169.32</ele>
        <time>2021-05-23T06:34:24.000Z</time>
      </trkpt>
      <trkpt lat="43.35705" lon="5.4506">
        <ele>169.93</ele>
        <time>2021-05-23T06:34:30.000Z</time>
      </trkpt>
      <trkpt lat="43.3571" lon="5.45034">
        <ele>170.17</ele>
        <time>2021-05-23T06:34:36.000Z</time>
      </trkpt>
      <trkpt lat="43.35715" lon="5.45008">
        <ele>170.63</ele>
        <time>2021-05-23T06:34:44.000Z</time>
      </trkpt>
      <trkpt lat="43.35721" lon="5.44982">
        <ele>170.79</ele>
        <time>2021-05-23T06:34:51.000Z</time>
      </trkpt>
      <trkpt lat="43.35739" lon="5.44975">
        <ele>171.36</ele>
        <time>2021-05-23T06:34:59.000Z</time>
      </trkpt>
      <trkpt lat="43.35759" lon="5.44984">
        <ele>172.15</ele>
        <time>2021-05-23T06:35:05.000Z</time>
      </trkpt>
      <trkpt lat="43.35779" lon="5.4499">
        <ele>172.63</ele>
        <time>2021-05-23T06:35:11.000Z</time>
      </trkpt>
      <trkpt lat="43.35798" lon="5.44997">
        <ele>173.29</ele>
        <time>2021-05-23T06:35:17.000Z</time>
      </trkpt>
      <trkpt lat="43.35818" lon="5.45001">
        <ele>173.75</ele>
        <time>2021-05-23T06:35:23.000Z</time>
      </trkpt>
      <trkpt lat="43.35836" lon="5.45006">
        <ele>174.28</ele>
        <time>2021-05-23T06:35:29.000Z</time>
      </trkpt>
      <trkpt lat="43.35855" lon="5.45015">
        <ele>174.76</ele>
        <time>2021-05-23T06:35:35.000Z</time>
      </trkpt>
      <trkpt lat="43.35868" lon="5.44997">
        <ele>175.28</ele>
        <time>2021-05-23T06:35:43.000Z</time>
      </trkpt>
      <trkpt lat="43.35872" lon="5.44972">
        <ele>175.64</ele>
        <time>2021-05-23T06:35:49.000Z</time>
      </trkpt>
      <trkpt lat="43.35877" lon="5.44944">
        <ele>176.11</ele>
        <time>2021-05-23T06:35:56.000Z</time>
      </trkpt>
      <trkpt lat="43.35883" lon="5.44918">
        <ele>175.85</ele>
        <time>2021-05-23T06:36:02.000Z</time>
      </trkpt>
      <trkpt lat="43.3589" lon="5.44893">
        <ele>173.18</ele>
        <time>2021-05-23T06:36:06.000Z</time>
      </trkpt>
      <trkpt lat="43.35898" lon="5.44864">
        <ele>170.91</ele>
        <time>2021-05-23T06:36:10.000Z</time>
      </trkpt>
      <trkpt lat="43.35918" lon="5.44856">
        <ele>170.47</ele>
        <time>2021-05-23T06:36:15.000Z</time>
      </trkpt>
      <trkpt lat="43.35936" lon="5.44851">
        <ele>170.7</ele>
        <time>2021-05-23T06:36:20.000Z</time>
      </trkpt>
      <trkpt lat="43.35954" lon="5.44851">
        <ele>171.56</ele>
        <time>2021-05-23T06:36:25.000Z</time>
      </trkpt>
      <trkpt lat="43.35975" lon="5.44848">
        <ele>172.47</ele>
        <time>2021-05-23T06:36:31.000Z</time>
      </trkpt>
      <trkpt lat="43.35993" lon="5.44845">
        <ele>172.82</ele>
        <time>2021-05-23T06:36:36.000Z</time>
      </trkpt>
      <trkpt lat="43.36013" lon="5.44837">
        <ele>173.42</ele>
        <time>2021-05-23T06:36:42.000Z</time>
      </trkpt>
      <trkpt lat="43.36032" lon="5.44828">
        <ele>174.18</ele>
        <time>2021-05-23T06:36:48.000Z</time>
      </trkpt>
      <trkpt lat="43.36053" lon="5.44822">
        <ele>174.71</ele>
        <time>2021-05-23T06:36:54.000Z</time>
      </trkpt>
      <trkpt lat="43.36071" lon="5.44814">
        <ele>175.66</ele>
        <time>2021-05-23T06:37:00.000Z</time>
      </trkpt>
      <trkpt lat="43.36089" lon="5.44801">
        <ele>176.79</ele>
        <time>2021-05-23T06:37:08.000Z</time>
      </trkpt>
      <trkpt lat="43.36106" lon="5.44789">
        <ele>177.61</ele>
        <time>2021-05-23T06:37:14.000Z</time>
      </trkpt>
      <trkpt lat="43.36123" lon="5.44778">
        <ele>178.24</ele>
        <time>2021-05-23T06:37:20.000Z</time>
      </trkpt>
      <trkpt lat="43.36143" lon="5.4477">
        <ele>179.11</ele>
        <time>2021-05-23T06:37:26.000Z</time>
      </trkpt>
      <trkpt lat="43.36161" lon="5.44763">
        <ele>180.35</ele>
        <time>2021-05-23T06:37:32.000Z</time>
      </trkpt>
      <trkpt lat="43.36178" lon="5.44755">
        <ele>181.45</ele>
        <time>2021-05-23T06:37:38.000Z</time>
      </trkpt>
      <trkpt lat="43.36199" lon="5.44752">
        <ele>182.14</ele>
        <time>2021-05-23T06:37:45.000Z</time>
      </trkpt>
      <trkpt lat="43.36218" lon="5.4475">
        <ele>182.96</ele>
        <time>2021-05-23T06:37:51.000Z</time>
      </trkpt>
      <trkpt lat="43.36236" lon="5.44745">
        <ele>183.6</ele>
        <time>2021-05-23T06:37:57.000Z</time>
      </trkpt>
      <trkpt lat="43.36254" lon="5.44743">
        <ele>183.94</ele>
        <time>2021-05-23T06:38:03.000Z</time>
      </trkpt>
      <trkpt lat="43.36273" lon="5.44741">
        <ele>184.52</ele>
        <time>2021-05-23T06:38:09.000Z</time>
      </trkpt>
      <trkpt lat="43.36291" lon="5.44737">
        <ele>185.35</ele>
        <time>2021-05-23T06:38:15.000Z</time>
      </trkpt>
      <trkpt lat="43.36312" lon="5.44732">
        <ele>185.96</ele>
        <time>2021-05-23T06:38:21.000Z</time>
      </trkpt>
      <trkpt lat="43.36332" lon="5.44721">
        <ele>186.52</ele>
        <time>2021-05-23T06:38:27.000Z</time>
      </trkpt>
      <trkpt lat="43.36351" lon="5.44711">
        <ele>187.08</ele>
        <time>2021-05-23T06:38:33.000Z</time>
      </trkpt>
      <trkpt lat="43.3637" lon="5.44704">
        <ele>187.89</ele>
        <time>2021-05-23T06:38:38.000Z</time>
      </trkpt>
      <trkpt lat="43.36391" lon="5.44704">
        <ele>188.86</ele>
        <time>2021-05-23T06:38:44.000Z</time>
      </trkpt>
      <trkpt lat="43.3641" lon="5.44709">
        <ele>189.8</ele>
        <time>2021-05-23T06:38:50.000Z</time>
      </trkpt>
      <trkpt lat="43.3643" lon="5.44713">
        <ele>190.72</ele>
        <time>2021-05-23T06:38:56.000Z</time>
      </trkpt>
      <trkpt lat="43.3645" lon="5.44709">
        <ele>191.3</ele>
        <time>2021-05-23T06:39:02.000Z</time>
      </trkpt>
      <trkpt lat="43.36469" lon="5.44706">
        <ele>191.84</ele>
        <time>2021-05-23T06:39:07.000Z</time>
      </trkpt>
      <trkpt lat="43.36488" lon="5.44706">
        <ele>192.53</ele>
        <time>2021-05-23T06:39:12.000Z</time>
      </trkpt>
      <trkpt lat="43.36508" lon="5.44705">
        <ele>193</ele>
        <time>2021-05-23T06:39:18.000Z</time>
      </trkpt>
      <trkpt lat="43.36527" lon="5.447">
        <ele>193.49</ele>
        <time>2021-05-23T06:39:24.000Z</time>
      </trkpt>
      <trkpt lat="43.36541" lon="5.44679">
        <ele>194.23</ele>
        <time>2021-05-23T06:39:30.000Z</time>
      </trkpt>
      <trkpt lat="43.36545" lon="5.44652">
        <ele>195.02</ele>
        <time>2021-05-23T06:39:36.000Z</time>
      </trkpt>
      <trkpt lat="43.36559" lon="5.44636">
        <ele>196.73</ele>
        <time>2021-05-23T06:39:42.000Z</time>
      </trkpt>
      <trkpt lat="43.36579" lon="5.44639">
        <ele>197.62</ele>
        <time>2021-05-23T06:39:48.000Z</time>
      </trkpt>
      <trkpt lat="43.36598" lon="5.44652">
        <ele>198.62</ele>
        <time>2021-05-23T06:39:54.000Z</time>
      </trkpt>
      <trkpt lat="43.36615" lon="5.44665">
        <ele>200.03</ele>
        <time>2021-05-23T06:40:01.000Z</time>
      </trkpt>
      <trkpt lat="43.36634" lon="5.44669">
        <ele>200.93</ele>
        <time>2021-05-23T06:40:07.000Z</time>
      </trkpt>
      <trkpt lat="43.36653" lon="5.44674">
        <ele>201.79</ele>
        <time>2021-05-23T06:40:13.000Z</time>
      </trkpt>
      <trkpt lat="43.36672" lon="5.44689">
        <ele>202.87</ele>
        <time>2021-05-23T06:40:19.000Z</time>
      </trkpt>
      <trkpt lat="43.3669" lon="5.44703">
        <ele>203.99</ele>
        <time>2021-05-23T06:40:25.000Z</time>
      </trkpt>
      <trkpt lat="43.36709" lon="5.44711">
        <ele>204.93</ele>
        <time>2021-05-23T06:40:31.000Z</time>
      </trkpt>
      <trkpt lat="43.36728" lon="5.44718">
        <ele>205.64</ele>
        <time>2021-05-23T06:40:37.000Z</time>
      </trkpt>
      <trkpt lat="43.36744" lon="5.44735">
        <ele>206.7</ele>
        <time>2021-05-23T06:40:44.000Z</time>
      </trkpt>
      <trkpt lat="43.36756" lon="5.44757">
        <ele>207.88</ele>
        <time>2021-05-23T06:40:50.000Z</time>
      </trkpt>
      <trkpt lat="43.36769" lon="5.44776">
        <ele>208.88</ele>
        <time>2021-05-23T06:40:56.000Z</time>
      </trkpt>
      <trkpt lat="43.36783" lon="5.44793">
        <ele>210.46</ele>
        <time>2021-05-23T06:41:03.000Z</time>
      </trkpt>
      <trkpt lat="43.368" lon="5.44806">
        <ele>212.49</ele>
        <time>2021-05-23T06:41:12.000Z</time>
      </trkpt>
      <trkpt lat="43.36818" lon="5.44797">
        <ele>214.17</ele>
        <time>2021-05-23T06:41:18.000Z</time>
      </trkpt>
      <trkpt lat="43.36837" lon="5.44795">
        <ele>216.63</ele>
        <time>2021-05-23T06:41:28.000Z</time>
      </trkpt>
      <trkpt lat="43.36851" lon="5.44811">
        <ele>217.68</ele>
        <time>2021-05-23T06:41:35.000Z</time>
      </trkpt>
      <trkpt lat="43.36864" lon="5.4483">
        <ele>218.89</ele>
        <time>2021-05-23T06:41:43.000Z</time>
      </trkpt>
      <trkpt lat="43.36876" lon="5.4485">
        <ele>220.23</ele>
        <time>2021-05-23T06:41:52.000Z</time>
      </trkpt>
      <trkpt lat="43.36896" lon="5.44851">
        <ele>221.58</ele>
        <time>2021-05-23T06:42:01.000Z</time>
      </trkpt>
      <trkpt lat="43.36915" lon="5.44847">
        <ele>222.91</ele>
        <time>2021-05-23T06:42:08.000Z</time>
      </trkpt>
      <trkpt lat="43.36933" lon="5.44854">
        <ele>223.7</ele>
        <time>2021-05-23T06:42:16.000Z</time>
      </trkpt>
      <trkpt lat="43.36948" lon="5.44868">
        <ele>224.4</ele>
        <time>2021-05-23T06:42:23.000Z</time>
      </trkpt>
      <trkpt lat="43.36966" lon="5.44873">
        <ele>225.26</ele>
        <time>2021-05-23T06:42:31.000Z</time>
      </trkpt>
      <trkpt lat="43.36984" lon="5.44864">
        <ele>226.69</ele>
        <time>2021-05-23T06:42:39.000Z</time>
      </trkpt>
      <trkpt lat="43.37" lon="5.44849">
        <ele>228.73</ele>
        <time>2021-05-23T06:42:49.000Z</time>
      </trkpt>
      <trkpt lat="43.37017" lon="5.44838">
        <ele>232.33</ele>
        <time>2021-05-23T06:43:02.000Z</time>
      </trkpt>
      <trkpt lat="43.37035" lon="5.44835">
        <ele>234.95</ele>
        <time>2021-05-23T06:43:13.000Z</time>
      </trkpt>
      <trkpt lat="43.37054" lon="5.44835">
        <ele>237.82</ele>
        <time>2021-05-23T06:43:23.000Z</time>
      </trkpt>
      <trkpt lat="43.37073" lon="5.44839">
        <ele>240.25</ele>
        <time>2021-05-23T06:43:34.000Z</time>
      </trkpt>
      <trkpt lat="43.37091" lon="5.44837">
        <ele>242.15</ele>
        <time>2021-05-23T06:43:43.000Z</time>
      </trkpt>
      <trkpt lat="43.3711" lon="5.44831">
        <ele>245.1</ele>
        <time>2021-05-23T06:43:55.000Z</time>
      </trkpt>
      <trkpt lat="43.37128" lon="5.4483">
        <ele>246.51</ele>
        <time>2021-05-23T06:44:05.000Z</time>
      </trkpt>
      <trkpt lat="43.37148" lon="5.44828">
        <ele>247</ele>
        <time>2021-05-23T06:44:14.000Z</time>
      </trkpt>
      <trkpt lat="43.37167" lon="5.44827">
        <ele>247.45</ele>
        <time>2021-05-23T06:44:22.000Z</time>
      </trkpt>
      <trkpt lat="43.37184" lon="5.44837">
        <ele>247.88</ele>
        <time>2021-05-23T06:44:31.000Z</time>
      </trkpt>
      <trkpt lat="43.37205" lon="5.44844">
        <ele>247.94</ele>
        <time>2021-05-23T06:44:39.000Z</time>
      </trkpt>
      <trkpt lat="43.37225" lon="5.44845">
        <ele>248.75</ele>
        <time>2021-05-23T06:44:45.000Z</time>
      </trkpt>
      <trkpt lat="43.37241" lon="5.4486">
        <ele>248.56</ele>
        <time>2021-05-23T06:44:50.000Z</time>
      </trkpt>
      <trkpt lat="43.37258" lon="5.44871">
        <ele>250.15</ele>
        <time>2021-05-23T06:48:37.000Z</time>
      </trkpt>
      <trkpt lat="43.37277" lon="5.44875">
        <ele>252.04</ele>
        <time>2021-05-23T06:48:47.000Z</time>
      </trkpt>
      <trkpt lat="43.37296" lon="5.44877">
        <ele>253.83</ele>
        <time>2021-05-23T06:48:58.000Z</time>
      </trkpt>
      <trkpt lat="43.37314" lon="5.44871">
        <ele>255.65</ele>
        <time>2021-05-23T06:49:06.000Z</time>
      </trkpt>
      <trkpt lat="43.37333" lon="5.44863">
        <ele>257.58</ele>
        <time>2021-05-23T06:49:14.000Z</time>
      </trkpt>
      <trkpt lat="43.3735" lon="5.44856">
        <ele>259.79</ele>
        <time>2021-05-23T06:49:22.000Z</time>
      </trkpt>
      <trkpt lat="43.37369" lon="5.44849">
        <ele>262.07</ele>
        <time>2021-05-23T06:49:30.000Z</time>
      </trkpt>
      <trkpt lat="43.37387" lon="5.44843">
        <ele>263.6</ele>
        <time>2021-05-23T06:49:38.000Z</time>
      </trkpt>
      <trkpt lat="43.37405" lon="5.44837">
        <ele>265.32</ele>
        <time>2021-05-23T06:49:46.000Z</time>
      </trkpt>
      <trkpt lat="43.37425" lon="5.44834">
        <ele>267.13</ele>
        <time>2021-05-23T06:49:55.000Z</time>
      </trkpt>
      <trkpt lat="43.37444" lon="5.44833">
        <ele>268.56</ele>
        <time>2021-05-23T06:50:03.000Z</time>
      </trkpt>
      <trkpt lat="43.37463" lon="5.44838">
        <ele>270.9</ele>
        <time>2021-05-23T06:50:12.000Z</time>
      </trkpt>
      <trkpt lat="43.37482" lon="5.44842">
        <ele>273.1</ele>
        <time>2021-05-23T06:50:22.000Z</time>
      </trkpt>
      <trkpt lat="43.375" lon="5.44847">
        <ele>275.53</ele>
        <time>2021-05-23T06:50:33.000Z</time>
      </trkpt>
      <trkpt lat="43.3752" lon="5.44846">
        <ele>278.04</ele>
        <time>2021-05-23T06:50:45.000Z</time>
      </trkpt>
      <trkpt lat="43.37538" lon="5.44845">
        <ele>280.24</ele>
        <time>2021-05-23T06:50:58.000Z</time>
      </trkpt>
      <trkpt lat="43.37556" lon="5.44841">
        <ele>282.69</ele>
        <time>2021-05-23T06:51:09.000Z</time>
      </trkpt>
      <trkpt lat="43.37574" lon="5.44839">
        <ele>285.39</ele>
        <time>2021-05-23T06:51:23.000Z</time>
      </trkpt>
      <trkpt lat="43.37592" lon="5.44839">
        <ele>287.39</ele>
        <time>2021-05-23T06:51:34.000Z</time>
      </trkpt>
      <trkpt lat="43.3761" lon="5.44846">
        <ele>289.57</ele>
        <time>2021-05-23T06:51:46.000Z</time>
      </trkpt>
      <trkpt lat="43.37627" lon="5.44854">
        <ele>293.11</ele>
        <time>2021-05-23T06:51:58.000Z</time>
      </trkpt>
      <trkpt lat="43.37644" lon="5.44867">
        <ele>297.01</ele>
        <time>2021-05-23T06:52:11.000Z</time>
      </trkpt>
      <trkpt lat="43.37659" lon="5.4488">
        <ele>298.37</ele>
        <time>2021-05-23T06:52:24.000Z</time>
      </trkpt>
      <trkpt lat="43.37673" lon="5.44898">
        <ele>300.35</ele>
        <time>2021-05-23T06:52:37.000Z</time>
      </trkpt>
      <trkpt lat="43.37687" lon="5.44916">
        <ele>303.37</ele>
        <time>2021-05-23T06:52:50.000Z</time>
      </trkpt>
      <trkpt lat="43.37699" lon="5.44935">
        <ele>305.18</ele>
        <time>2021-05-23T06:53:02.000Z</time>
      </trkpt>
      <trkpt lat="43.37709" lon="5.44956">
        <ele>306.45</ele>
        <time>2021-05-23T06:53:16.000Z</time>
      </trkpt>
      <trkpt lat="43.3772" lon="5.44977">
        <ele>308.16</ele>
        <time>2021-05-23T06:53:28.000Z</time>
      </trkpt>
      <trkpt lat="43.37728" lon="5.45">
        <ele>311.14</ele>
        <time>2021-05-23T06:53:40.000Z</time>
      </trkpt>
      <trkpt lat="43.37732" lon="5.45026">
        <ele>312.77</ele>
        <time>2021-05-23T06:53:51.000Z</time>
      </trkpt>
      <trkpt lat="43.37739" lon="5.4505">
        <ele>315.29</ele>
        <time>2021-05-23T06:54:05.000Z</time>
      </trkpt>
      <trkpt lat="43.37745" lon="5.45074">
        <ele>316.93</ele>
        <time>2021-05-23T06:54:19.000Z</time>
      </trkpt>
      <trkpt lat="43.37755" lon="5.45096">
        <ele>317.98</ele>
        <time>2021-05-23T06:54:31.000Z</time>
      </trkpt>
      <trkpt lat="43.37756" lon="5.45122">
        <ele>319.92</ele>
        <time>2021-05-23T06:54:41.000Z</time>
      </trkpt>
      <trkpt lat="43.3774" lon="5.45134">
        <ele>320.76</ele>
        <time>2021-05-23T06:54:51.000Z</time>
      </trkpt>
      <trkpt lat="43.37722" lon="5.45125">
        <ele>319.59</ele>
        <time>2021-05-23T06:58:48.000Z</time>
      </trkpt>
      <trkpt lat="43.37706" lon="5.45111">
        <ele>319.39</ele>
        <time>2021-05-23T06:58:55.000Z</time>
      </trkpt>
      <trkpt lat="43.37686" lon="5.45096">
        <ele>318.6</ele>
        <time>2021-05-23T06:59:00.000Z</time>
      </trkpt>
      <trkpt lat="43.37669" lon="5.45078">
        <ele>317.79</ele>
        <time>2021-05-23T06:59:05.000Z</time>
      </trkpt>
      <trkpt lat="43.3766" lon="5.45054">
        <ele>319.32</ele>
        <time>2021-05-23T06:59:10.000Z</time>
      </trkpt>
      <trkpt lat="43.37649" lon="5.45031">
        <ele>320.75</ele>
        <time>2021-05-23T06:59:16.000Z</time>
      </trkpt>
      <trkpt lat="43.37633" lon="5.45018">
        <ele>321.63</ele>
        <time>2021-05-23T06:59:22.000Z</time>
      </trkpt>
      <trkpt lat="43.37612" lon="5.45021">
        <ele>324.52</ele>
        <time>2021-05-23T06:59:30.000Z</time>
      </trkpt>
      <trkpt lat="43.37598" lon="5.45039">
        <ele>325.73</ele>
        <time>2021-05-23T06:59:37.000Z</time>
      </trkpt>
      <trkpt lat="43.37584" lon="5.45056">
        <ele>326.85</ele>
        <time>2021-05-23T06:59:45.000Z</time>
      </trkpt>
      <trkpt lat="43.37571" lon="5.45076">
        <ele>328.6</ele>
        <time>2021-05-23T06:59:55.000Z</time>
      </trkpt>
      <trkpt lat="43.37563" lon="5.451">
        <ele>330.11</ele>
        <time>2021-05-23T07:00:04.000Z</time>
      </trkpt>
      <trkpt lat="43.37577" lon="5.45117">
        <ele>331.38</ele>
        <time>2021-05-23T07:00:14.000Z</time>
      </trkpt>
      <trkpt lat="43.37595" lon="5.45127">
        <ele>333</ele>
        <time>2021-05-23T07:00:24.000Z</time>
      </trkpt>
      <trkpt lat="43.37613" lon="5.45136">
        <ele>334.37</ele>
        <time>2021-05-23T07:00:35.000Z</time>
      </trkpt>
      <trkpt lat="43.3763" lon="5.45148">
        <ele>335.66</ele>
        <time>2021-05-23T07:00:45.000Z</time>
      </trkpt>
      <trkpt lat="43.37646" lon="5.45161">
        <ele>337.8</ele>
        <time>2021-05-23T07:00:56.000Z</time>
      </trkpt>
      <trkpt lat="43.37664" lon="5.45174">
        <ele>339.43</ele>
        <time>2021-05-23T07:01:07.000Z</time>
      </trkpt>
      <trkpt lat="43.37682" lon="5.45185">
        <ele>340.38</ele>
        <time>2021-05-23T07:01:18.000Z</time>
      </trkpt>
      <trkpt lat="43.37701" lon="5.45194">
        <ele>340.2</ele>
        <time>2021-05-23T07:01:27.000Z</time>
      </trkpt>
      <trkpt lat="43.37719" lon="5.45202">
        <ele>339.98</ele>
        <time>2021-05-23T07:01:34.000Z</time>
      </trkpt>
      <trkpt lat="43.37738" lon="5.45213">
        <ele>339.23</ele>
        <time>2021-05-23T07:01:41.000Z</time>
      </trkpt>
      <trkpt lat="43.37758" lon="5.45221">
        <ele>339.17</ele>
        <time>2021-05-23T07:01:48.000Z</time>
      </trkpt>
      <trkpt lat="43.37777" lon="5.45222">
        <ele>340.85</ele>
        <time>2021-05-23T07:01:57.000Z</time>
      </trkpt>
      <trkpt lat="43.37795" lon="5.45225">
        <ele>341.23</ele>
        <time>2021-05-23T07:02:10.000Z</time>
      </trkpt>
      <trkpt lat="43.37813" lon="5.4522">
        <ele>341.17</ele>
        <time>2021-05-23T07:05:09.000Z</time>
      </trkpt>
      <trkpt lat="43.37831" lon="5.45215">
        <ele>342.48</ele>
        <time>2021-05-23T07:05:18.000Z</time>
      </trkpt>
      <trkpt lat="43.37851" lon="5.45213">
        <ele>342.09</ele>
        <time>2021-05-23T07:05:25.000Z</time>
      </trkpt>
      <trkpt lat="43.37871" lon="5.45218">
        <ele>342.52</ele>
        <time>2021-05-23T07:05:32.000Z</time>
      </trkpt>
      <trkpt lat="43.37889" lon="5.45226">
        <ele>342.24</ele>
        <time>2021-05-23T07:05:38.000Z</time>
      </trkpt>
      <trkpt lat="43.37906" lon="5.45237">
        <ele>342.27</ele>
        <time>2021-05-23T07:05:43.000Z</time>
      </trkpt>
      <trkpt lat="43.37925" lon="5.45248">
        <ele>341.57</ele>
        <time>2021-05-23T07:05:49.000Z</time>
      </trkpt>
      <trkpt lat="43.37945" lon="5.45257">
        <ele>341.71</ele>
        <time>2021-05-23T07:05:54.000Z</time>
      </trkpt>
      <trkpt lat="43.37964" lon="5.45267">
        <ele>341.62</ele>
        <time>2021-05-23T07:05:59.000Z</time>
      </trkpt>
      <trkpt lat="43.37979" lon="5.45282">
        <ele>342.83</ele>
        <time>2021-05-23T07:06:04.000Z</time>
      </trkpt>
      <trkpt lat="43.3799" lon="5.45305">
        <ele>343.22</ele>
        <time>2021-05-23T07:06:10.000Z</time>
      </trkpt>
      <trkpt lat="43.38001" lon="5.45328">
        <ele>342.96</ele>
        <time>2021-05-23T07:06:15.000Z</time>
      </trkpt>
      <trkpt lat="43.38013" lon="5.45347">
        <ele>342.95</ele>
        <time>2021-05-23T07:06:20.000Z</time>
      </trkpt>
      <trkpt lat="43.38028" lon="5.45363">
        <ele>343.19</ele>
        <time>2021-05-23T07:06:25.000Z</time>
      </trkpt>
      <trkpt lat="43.38041" lon="5.45384">
        <ele>343.13</ele>
        <time>2021-05-23T07:06:30.000Z</time>
      </trkpt>
      <trkpt lat="43.38051" lon="5.45406">
        <ele>343.16</ele>
        <time>2021-05-23T07:06:35.000Z</time>
      </trkpt>
      <trkpt lat="43.38065" lon="5.45428">
        <ele>343.72</ele>
        <time>2021-05-23T07:06:41.000Z</time>
      </trkpt>
      <trkpt lat="43.38077" lon="5.45449">
        <ele>343.53</ele>
        <time>2021-05-23T07:06:46.000Z</time>
      </trkpt>
      <trkpt lat="43.38093" lon="5.45463">
        <ele>342.93</ele>
        <time>2021-05-23T07:06:51.000Z</time>
      </trkpt>
      <trkpt lat="43.38112" lon="5.45465">
        <ele>342.85</ele>
        <time>2021-05-23T07:06:56.000Z</time>
      </trkpt>
      <trkpt lat="43.38132" lon="5.4546">
        <ele>342.45</ele>
        <time>2021-05-23T07:07:01.000Z</time>
      </trkpt>
      <trkpt lat="43.38152" lon="5.45452">
        <ele>342.81</ele>
        <time>2021-05-23T07:07:06.000Z</time>
      </trkpt>
      <trkpt lat="43.38171" lon="5.45444">
        <ele>342.32</ele>
        <time>2021-05-23T07:07:10.000Z</time>
      </trkpt>
      <trkpt lat="43.38186" lon="5.4543">
        <ele>341.9</ele>
        <time>2021-05-23T07:07:14.000Z</time>
      </trkpt>
      <trkpt lat="43.38203" lon="5.45416">
        <ele>341.72</ele>
        <time>2021-05-23T07:07:18.000Z</time>
      </trkpt>
      <trkpt lat="43.38217" lon="5.454">
        <ele>341.34</ele>
        <time>2021-05-23T07:07:23.000Z</time>
      </trkpt>
      <trkpt lat="43.38237" lon="5.45385">
        <ele>341.37</ele>
        <time>2021-05-23T07:07:28.000Z</time>
      </trkpt>
      <trkpt lat="43.38252" lon="5.45364">
        <ele>341.3</ele>
        <time>2021-05-23T07:07:33.000Z</time>
      </trkpt>
      <trkpt lat="43.3827" lon="5.45358">
        <ele>341.42</ele>
        <time>2021-05-23T07:07:40.000Z</time>
      </trkpt>
      <trkpt lat="43.38281" lon="5.45337">
        <ele>343.41</ele>
        <time>2021-05-23T07:07:51.000Z</time>
      </trkpt>
      <trkpt lat="43.38298" lon="5.45328">
        <ele>344.24</ele>
        <time>2021-05-23T07:07:59.000Z</time>
      </trkpt>
      <trkpt lat="43.38316" lon="5.45322">
        <ele>345.33</ele>
        <time>2021-05-23T07:08:08.000Z</time>
      </trkpt>
      <trkpt lat="43.38332" lon="5.4531">
        <ele>346.32</ele>
        <time>2021-05-23T07:08:19.000Z</time>
      </trkpt>
      <trkpt lat="43.38351" lon="5.45306">
        <ele>348.55</ele>
        <time>2021-05-23T07:08:32.000Z</time>
      </trkpt>
      <trkpt lat="43.38369" lon="5.45298">
        <ele>349.87</ele>
        <time>2021-05-23T07:08:41.000Z</time>
      </trkpt>
      <trkpt lat="43.38384" lon="5.4528">
        <ele>350.2</ele>
        <time>2021-05-23T07:08:49.000Z</time>
      </trkpt>
      <trkpt lat="43.38398" lon="5.45261">
        <ele>350.27</ele>
        <time>2021-05-23T07:08:56.000Z</time>
      </trkpt>
      <trkpt lat="43.38415" lon="5.45251">
        <ele>350.67</ele>
        <time>2021-05-23T07:09:03.000Z</time>
      </trkpt>
      <trkpt lat="43.38433" lon="5.45243">
        <ele>351.64</ele>
        <time>2021-05-23T07:09:12.000Z</time>
      </trkpt>
      <trkpt lat="43.38449" lon="5.45233">
        <ele>351.93</ele>
        <time>2021-05-23T07:09:20.000Z</time>
      </trkpt>
      <trkpt lat="43.38468" lon="5.45224">
        <ele>352.89</ele>
        <time>2021-05-23T07:09:28.000Z</time>
      </trkpt>
      <trkpt lat="43.38486" lon="5.45222">
        <ele>355.91</ele>
        <time>2021-05-23T07:09:39.000Z</time>
      </trkpt>
      <trkpt lat="43.38506" lon="5.45221">
        <ele>356.91</ele>
        <time>2021-05-23T07:09:50.000Z</time>
      </trkpt>
      <trkpt lat="43.38526" lon="5.45218">
        <ele>357.53</ele>
        <time>2021-05-23T07:09:58.000Z</time>
      </trkpt>
      <trkpt lat="43.38543" lon="5.45207">
        <ele>358.1</ele>
        <time>2021-05-23T07:10:06.000Z</time>
      </trkpt>
      <trkpt lat="43.38561" lon="5.45195">
        <ele>359.06</ele>
        <time>2021-05-23T07:10:15.000Z</time>
      </trkpt>
      <trkpt lat="43.38581" lon="5.45188">
        <ele>360.39</ele>
        <time>2021-05-23T07:10:23.000Z</time>
      </trkpt>
      <trkpt lat="43.38599" lon="5.45178">
        <ele>361.94</ele>
        <time>2021-05-23T07:10:31.000Z</time>
      </trkpt>
      <trkpt lat="43.38616" lon="5.45163">
        <ele>362.15</ele>
        <time>2021-05-23T07:10:39.000Z</time>
      </trkpt>
      <trkpt lat="43.38632" lon="5.45148">
        <ele>363.42</ele>
        <time>2021-05-23T07:10:47.000Z</time>
      </trkpt>
      <trkpt lat="43.3865" lon="5.4514">
        <ele>364.92</ele>
        <time>2021-05-23T07:10:56.000Z</time>
      </trkpt>
      <trkpt lat="43.38668" lon="5.45135">
        <ele>365.82</ele>
        <time>2021-05-23T07:11:04.000Z</time>
      </trkpt>
      <trkpt lat="43.38688" lon="5.45132">
        <ele>366.55</ele>
        <time>2021-05-23T07:11:12.000Z</time>
      </trkpt>
      <trkpt lat="43.38707" lon="5.45127">
        <ele>368.09</ele>
        <time>2021-05-23T07:11:21.000Z</time>
      </trkpt>
      <trkpt lat="43.38725" lon="5.4512">
        <ele>369.19</ele>
        <time>2021-05-23T07:11:32.000Z</time>
      </trkpt>
      <trkpt lat="43.38743" lon="5.45112">
        <ele>370.61</ele>
        <time>2021-05-23T07:11:43.000Z</time>
      </trkpt>
      <trkpt lat="43.38761" lon="5.45103">
        <ele>371.46</ele>
        <time>2021-05-23T07:11:52.000Z</time>
      </trkpt>
      <trkpt lat="43.38778" lon="5.45093">
        <ele>372.41</ele>
        <time>2021-05-23T07:12:02.000Z</time>
      </trkpt>
      <trkpt lat="43.38795" lon="5.45081">
        <ele>373.24</ele>
        <time>2021-05-23T07:12:12.000Z</time>
      </trkpt>
      <trkpt lat="43.38813" lon="5.45067">
        <ele>373.6</ele>
        <time>2021-05-23T07:12:21.000Z</time>
      </trkpt>
      <trkpt lat="43.38827" lon="5.45051">
        <ele>373.92</ele>
        <time>2021-05-23T07:12:31.000Z</time>
      </trkpt>
      <trkpt lat="43.38836" lon="5.4503">
        <ele>375.23</ele>
        <time>2021-05-23T07:12:40.000Z</time>
      </trkpt>
      <trkpt lat="43.38851" lon="5.45012">
        <ele>377.19</ele>
        <time>2021-05-23T07:12:53.000Z</time>
      </trkpt>
      <trkpt lat="43.3887" lon="5.45005">
        <ele>378.49</ele>
        <time>2021-05-23T07:13:04.000Z</time>
      </trkpt>
      <trkpt lat="43.38886" lon="5.44995">
        <ele>379.52</ele>
        <time>2021-05-23T07:13:14.000Z</time>
      </trkpt>
      <trkpt lat="43.389" lon="5.44977">
        <ele>380.15</ele>
        <time>2021-05-23T07:13:24.000Z</time>
      </trkpt>
      <trkpt lat="43.38912" lon="5.44957">
        <ele>381.03</ele>
        <time>2021-05-23T07:13:34.000Z</time>
      </trkpt>
      <trkpt lat="43.38926" lon="5.44939">
        <ele>383.57</ele>
        <time>2021-05-23T07:13:47.000Z</time>
      </trkpt>
      <trkpt lat="43.38942" lon="5.44926">
        <ele>386.42</ele>
        <time>2021-05-23T07:13:58.000Z</time>
      </trkpt>
      <trkpt lat="43.38954" lon="5.44904">
        <ele>388.49</ele>
        <time>2021-05-23T07:14:09.000Z</time>
      </trkpt>
      <trkpt lat="43.38968" lon="5.44887">
        <ele>391.36</ele>
        <time>2021-05-23T07:14:23.000Z</time>
      </trkpt>
      <trkpt lat="43.38986" lon="5.44873">
        <ele>393.58</ele>
        <time>2021-05-23T07:14:35.000Z</time>
      </trkpt>
      <trkpt lat="43.39003" lon="5.44864">
        <ele>394.97</ele>
        <time>2021-05-23T07:14:47.000Z</time>
      </trkpt>
      <trkpt lat="43.39021" lon="5.44856">
        <ele>395.36</ele>
        <time>2021-05-23T07:14:57.000Z</time>
      </trkpt>
      <trkpt lat="43.39037" lon="5.44846">
        <ele>395.57</ele>
        <time>2021-05-23T07:15:07.000Z</time>
      </trkpt>
      <trkpt lat="43.39055" lon="5.44838">
        <ele>395.97</ele>
        <time>2021-05-23T07:21:49.000Z</time>
      </trkpt>
      <trkpt lat="43.39072" lon="5.44828">
        <ele>398.95</ele>
        <time>2021-05-23T07:21:58.000Z</time>
      </trkpt>
      <trkpt lat="43.3909" lon="5.44824">
        <ele>402.01</ele>
        <time>2021-05-23T07:22:07.000Z</time>
      </trkpt>
      <trkpt lat="43.39071" lon="5.44818">
        <ele>402.96</ele>
        <time>2021-05-23T07:22:21.000Z</time>
      </trkpt>
      <trkpt lat="43.39052" lon="5.4482">
        <ele>403.5</ele>
        <time>2021-05-23T07:22:28.000Z</time>
      </trkpt>
      <trkpt lat="43.39038" lon="5.44802">
        <ele>403.93</ele>
        <time>2021-05-23T07:22:37.000Z</time>
      </trkpt>
      <trkpt lat="43.39025" lon="5.4482">
        <ele>403.95</ele>
        <time>2021-05-23T07:22:43.000Z</time>
      </trkpt>
      <trkpt lat="43.39007" lon="5.44836">
        <ele>404.02</ele>
        <time>2021-05-23T07:22:49.000Z</time>
      </trkpt>
      <trkpt lat="43.38988" lon="5.44841">
        <ele>404.53</ele>
        <time>2021-05-23T07:22:55.000Z</time>
      </trkpt>
      <trkpt lat="43.38971" lon="5.44848">
        <ele>404.94</ele>
        <time>2021-05-23T07:23:01.000Z</time>
      </trkpt>
      <trkpt lat="43.38951" lon="5.44857">
        <ele>405.29</ele>
        <time>2021-05-23T07:23:08.000Z</time>
      </trkpt>
      <trkpt lat="43.38932" lon="5.44863">
        <ele>405.79</ele>
        <time>2021-05-23T07:23:14.000Z</time>
      </trkpt>
      <trkpt lat="43.38915" lon="5.44872">
        <ele>406.43</ele>
        <time>2021-05-23T07:23:20.000Z</time>
      </trkpt>
      <trkpt lat="43.38897" lon="5.44882">
        <ele>406.44</ele>
        <time>2021-05-23T07:23:26.000Z</time>
      </trkpt>
      <trkpt lat="43.38877" lon="5.44886">
        <ele>406.69</ele>
        <time>2021-05-23T07:23:33.000Z</time>
      </trkpt>
      <trkpt lat="43.38859" lon="5.44889">
        <ele>406.08</ele>
        <time>2021-05-23T07:23:40.000Z</time>
      </trkpt>
      <trkpt lat="43.38853" lon="5.44913">
        <ele>407.34</ele>
        <time>2021-05-23T07:23:46.000Z</time>
      </trkpt>
      <trkpt lat="43.38841" lon="5.44933">
        <ele>408.6</ele>
        <time>2021-05-23T07:23:52.000Z</time>
      </trkpt>
      <trkpt lat="43.38824" lon="5.44944">
        <ele>409.06</ele>
        <time>2021-05-23T07:23:58.000Z</time>
      </trkpt>
      <trkpt lat="43.38806" lon="5.44953">
        <ele>409.82</ele>
        <time>2021-05-23T07:24:04.000Z</time>
      </trkpt>
      <trkpt lat="43.38786" lon="5.44962">
        <ele>410.54</ele>
        <time>2021-05-23T07:24:11.000Z</time>
      </trkpt>
      <trkpt lat="43.38767" lon="5.44975">
        <ele>411.09</ele>
        <time>2021-05-23T07:24:18.000Z</time>
      </trkpt>
      <trkpt lat="43.38748" lon="5.44985">
        <ele>411.2</ele>
        <time>2021-05-23T07:24:25.000Z</time>
      </trkpt>
      <trkpt lat="43.38729" lon="5.44991">
        <ele>411.38</ele>
        <time>2021-05-23T07:24:31.000Z</time>
      </trkpt>
      <trkpt lat="43.38711" lon="5.45001">
        <ele>412.6</ele>
        <time>2021-05-23T07:24:38.000Z</time>
      </trkpt>
      <trkpt lat="43.38693" lon="5.45006">
        <ele>412.78</ele>
        <time>2021-05-23T07:24:44.000Z</time>
      </trkpt>
      <trkpt lat="43.38674" lon="5.45008">
        <ele>413.11</ele>
        <time>2021-05-23T07:24:50.000Z</time>
      </trkpt>
      <trkpt lat="43.38654" lon="5.45013">
        <ele>412.44</ele>
        <time>2021-05-23T07:24:57.000Z</time>
      </trkpt>
      <trkpt lat="43.38635" lon="5.45013">
        <ele>413.44</ele>
        <time>2021-05-23T07:25:03.000Z</time>
      </trkpt>
      <trkpt lat="43.38614" lon="5.45013">
        <ele>413.56</ele>
        <time>2021-05-23T07:25:10.000Z</time>
      </trkpt>
      <trkpt lat="43.38596" lon="5.45015">
        <ele>414.45</ele>
        <time>2021-05-23T07:25:16.000Z</time>
      </trkpt>
      <trkpt lat="43.38576" lon="5.4502">
        <ele>415.05</ele>
        <time>2021-05-23T07:25:23.000Z</time>
      </trkpt>
      <trkpt lat="43.38557" lon="5.45026">
        <ele>415.7</ele>
        <time>2021-05-23T07:25:30.000Z</time>
      </trkpt>
      <trkpt lat="43.38537" lon="5.4503">
        <ele>415.7</ele>
        <time>2021-05-23T07:25:37.000Z</time>
      </trkpt>
      <trkpt lat="43.38519" lon="5.45027">
        <ele>415.64</ele>
        <time>2021-05-23T07:25:43.000Z</time>
      </trkpt>
      <trkpt lat="43.38502" lon="5.45018">
        <ele>416.13</ele>
        <time>2021-05-23T07:25:49.000Z</time>
      </trkpt>
      <trkpt lat="43.38482" lon="5.4501">
        <ele>416.53</ele>
        <time>2021-05-23T07:25:56.000Z</time>
      </trkpt>
      <trkpt lat="43.38463" lon="5.45007">
        <ele>416.55</ele>
        <time>2021-05-23T07:26:02.000Z</time>
      </trkpt>
      <trkpt lat="43.38445" lon="5.45004">
        <ele>416.3</ele>
        <time>2021-05-23T07:26:08.000Z</time>
      </trkpt>
      <trkpt lat="43.38427" lon="5.45001">
        <ele>417.1</ele>
        <time>2021-05-23T07:26:15.000Z</time>
      </trkpt>
      <trkpt lat="43.38431" lon="5.44975">
        <ele>415.66</ele>
        <time>2021-05-23T07:26:21.000Z</time>
      </trkpt>
      <trkpt lat="43.38443" lon="5.44949">
        <ele>413.79</ele>
        <time>2021-05-23T07:26:26.000Z</time>
      </trkpt>
      <trkpt lat="43.38453" lon="5.44925">
        <ele>413.17</ele>
        <time>2021-05-23T07:26:30.000Z</time>
      </trkpt>
      <trkpt lat="43.38461" lon="5.44897">
        <ele>413.2</ele>
        <time>2021-05-23T07:26:34.000Z</time>
      </trkpt>
      <trkpt lat="43.38458" lon="5.44868">
        <ele>412.7</ele>
        <time>2021-05-23T07:26:38.000Z</time>
      </trkpt>
      <trkpt lat="43.38446" lon="5.44842">
        <ele>411.43</ele>
        <time>2021-05-23T07:26:42.000Z</time>
      </trkpt>
      <trkpt lat="43.38433" lon="5.44815">
        <ele>410.19</ele>
        <time>2021-05-23T07:26:46.000Z</time>
      </trkpt>
      <trkpt lat="43.38429" lon="5.44789">
        <ele>408.9</ele>
        <time>2021-05-23T07:26:49.000Z</time>
      </trkpt>
      <trkpt lat="43.3843" lon="5.4476">
        <ele>407.62</ele>
        <time>2021-05-23T07:26:52.000Z</time>
      </trkpt>
      <trkpt lat="43.38436" lon="5.44731">
        <ele>407.31</ele>
        <time>2021-05-23T07:26:55.000Z</time>
      </trkpt>
      <trkpt lat="43.38447" lon="5.4471">
        <ele>407.38</ele>
        <time>2021-05-23T07:26:58.000Z</time>
      </trkpt>
      <trkpt lat="43.38458" lon="5.44689">
        <ele>408.05</ele>
        <time>2021-05-23T07:27:02.000Z</time>
      </trkpt>
      <trkpt lat="43.38471" lon="5.44666">
        <ele>408.85</ele>
        <time>2021-05-23T07:27:08.000Z</time>
      </trkpt>
      <trkpt lat="43.38483" lon="5.44642">
        <ele>409.35</ele>
        <time>2021-05-23T07:27:14.000Z</time>
      </trkpt>
      <trkpt lat="43.38495" lon="5.44624">
        <ele>409.88</ele>
        <time>2021-05-23T07:27:20.000Z</time>
      </trkpt>
      <trkpt lat="43.3851" lon="5.44605">
        <ele>410.68</ele>
        <time>2021-05-23T07:27:27.000Z</time>
      </trkpt>
      <trkpt lat="43.38522" lon="5.44582">
        <ele>410.89</ele>
        <time>2021-05-23T07:27:34.000Z</time>
      </trkpt>
      <trkpt lat="43.38536" lon="5.44565">
        <ele>410.74</ele>
        <time>2021-05-23T07:27:40.000Z</time>
      </trkpt>
      <trkpt lat="43.3852" lon="5.44548">
        <ele>410.24</ele>
        <time>2021-05-23T07:27:48.000Z</time>
      </trkpt>
      <trkpt lat="43.38501" lon="5.44555">
        <ele>410</ele>
        <time>2021-05-23T07:27:52.000Z</time>
      </trkpt>
      <trkpt lat="43.38481" lon="5.44563">
        <ele>409.8</ele>
        <time>2021-05-23T07:27:56.000Z</time>
      </trkpt>
      <trkpt lat="43.38461" lon="5.44571">
        <ele>409.86</ele>
        <time>2021-05-23T07:28:01.000Z</time>
      </trkpt>
      <trkpt lat="43.38441" lon="5.44575">
        <ele>409.51</ele>
        <time>2021-05-23T07:28:06.000Z</time>
      </trkpt>
      <trkpt lat="43.38419" lon="5.44581">
        <ele>409.49</ele>
        <time>2021-05-23T07:28:11.000Z</time>
      </trkpt>
      <trkpt lat="43.38398" lon="5.44588">
        <ele>409.13</ele>
        <time>2021-05-23T07:28:16.000Z</time>
      </trkpt>
      <trkpt lat="43.38381" lon="5.44596">
        <ele>409.21</ele>
        <time>2021-05-23T07:28:20.000Z</time>
      </trkpt>
      <trkpt lat="43.3836" lon="5.44592">
        <ele>408.77</ele>
        <time>2021-05-23T07:28:24.000Z</time>
      </trkpt>
      <trkpt lat="43.38354" lon="5.44565">
        <ele>407.84</ele>
        <time>2021-05-23T07:28:30.000Z</time>
      </trkpt>
      <trkpt lat="43.38358" lon="5.44537">
        <ele>408.04</ele>
        <time>2021-05-23T07:28:36.000Z</time>
      </trkpt>
      <trkpt lat="43.38357" lon="5.4451">
        <ele>408.04</ele>
        <time>2021-05-23T07:28:41.000Z</time>
      </trkpt>
      <trkpt lat="43.38355" lon="5.44484">
        <ele>407.87</ele>
        <time>2021-05-23T07:28:46.000Z</time>
      </trkpt>
      <trkpt lat="43.3835" lon="5.44458">
        <ele>408</ele>
        <time>2021-05-23T07:28:50.000Z</time>
      </trkpt>
      <trkpt lat="43.38345" lon="5.44429">
        <ele>407.67</ele>
        <time>2021-05-23T07:28:55.000Z</time>
      </trkpt>
      <trkpt lat="43.3834" lon="5.44403">
        <ele>407.14</ele>
        <time>2021-05-23T07:29:00.000Z</time>
      </trkpt>
      <trkpt lat="43.38325" lon="5.44382">
        <ele>406.82</ele>
        <time>2021-05-23T07:29:05.000Z</time>
      </trkpt>
      <trkpt lat="43.38307" lon="5.44373">
        <ele>406.86</ele>
        <time>2021-05-23T07:29:10.000Z</time>
      </trkpt>
      <trkpt lat="43.38286" lon="5.44377">
        <ele>406.61</ele>
        <time>2021-05-23T07:29:15.000Z</time>
      </trkpt>
      <trkpt lat="43.38266" lon="5.44386">
        <ele>406.36</ele>
        <time>2021-05-23T07:29:20.000Z</time>
      </trkpt>
      <trkpt lat="43.38247" lon="5.444">
        <ele>406.39</ele>
        <time>2021-05-23T07:29:25.000Z</time>
      </trkpt>
      <trkpt lat="43.38228" lon="5.44401">
        <ele>405.89</ele>
        <time>2021-05-23T07:29:30.000Z</time>
      </trkpt>
      <trkpt lat="43.38211" lon="5.44391">
        <ele>405.56</ele>
        <time>2021-05-23T07:29:34.000Z</time>
      </trkpt>
      <trkpt lat="43.38196" lon="5.44367">
        <ele>404.87</ele>
        <time>2021-05-23T07:29:39.000Z</time>
      </trkpt>
      <trkpt lat="43.3819" lon="5.44339">
        <ele>404.34</ele>
        <time>2021-05-23T07:29:44.000Z</time>
      </trkpt>
      <trkpt lat="43.38191" lon="5.44314">
        <ele>404.2</ele>
        <time>2021-05-23T07:29:48.000Z</time>
      </trkpt>
      <trkpt lat="43.38195" lon="5.4429">
        <ele>404.18</ele>
        <time>2021-05-23T07:29:52.000Z</time>
      </trkpt>
      <trkpt lat="43.38201" lon="5.44264">
        <ele>403.43</ele>
        <time>2021-05-23T07:29:56.000Z</time>
      </trkpt>
      <trkpt lat="43.38201" lon="5.44239">
        <ele>403.3</ele>
        <time>2021-05-23T07:30:00.000Z</time>
      </trkpt>
      <trkpt lat="43.38194" lon="5.44212">
        <ele>402.71</ele>
        <time>2021-05-23T07:30:04.000Z</time>
      </trkpt>
      <trkpt lat="43.38185" lon="5.4419">
        <ele>402.14</ele>
        <time>2021-05-23T07:30:08.000Z</time>
      </trkpt>
      <trkpt lat="43.38164" lon="5.4418">
        <ele>401.41</ele>
        <time>2021-05-23T07:30:13.000Z</time>
      </trkpt>
      <trkpt lat="43.38144" lon="5.44186">
        <ele>401.37</ele>
        <time>2021-05-23T07:30:18.000Z</time>
      </trkpt>
      <trkpt lat="43.38124" lon="5.44188">
        <ele>401.16</ele>
        <time>2021-05-23T07:30:24.000Z</time>
      </trkpt>
      <trkpt lat="43.38107" lon="5.44184">
        <ele>399.33</ele>
        <time>2021-05-23T07:31:53.000Z</time>
      </trkpt>
      <trkpt lat="43.38089" lon="5.44202">
        <ele>397.43</ele>
        <time>2021-05-23T07:31:59.000Z</time>
      </trkpt>
      <trkpt lat="43.38073" lon="5.44218">
        <ele>395.11</ele>
        <time>2021-05-23T07:32:04.000Z</time>
      </trkpt>
      <trkpt lat="43.38061" lon="5.4424">
        <ele>390.81</ele>
        <time>2021-05-23T07:32:10.000Z</time>
      </trkpt>
      <trkpt lat="43.38051" lon="5.44264">
        <ele>386.99</ele>
        <time>2021-05-23T07:32:16.000Z</time>
      </trkpt>
      <trkpt lat="43.38038" lon="5.44282">
        <ele>382.55</ele>
        <time>2021-05-23T07:32:22.000Z</time>
      </trkpt>
      <trkpt lat="43.38025" lon="5.44301">
        <ele>378.84</ele>
        <time>2021-05-23T07:32:28.000Z</time>
      </trkpt>
      <trkpt lat="43.38015" lon="5.44324">
        <ele>374.92</ele>
        <time>2021-05-23T07:32:34.000Z</time>
      </trkpt>
      <trkpt lat="43.38005" lon="5.44345">
        <ele>372.15</ele>
        <time>2021-05-23T07:32:40.000Z</time>
      </trkpt>
      <trkpt lat="43.37992" lon="5.44364">
        <ele>368.73</ele>
        <time>2021-05-23T07:32:47.000Z</time>
      </trkpt>
      <trkpt lat="43.37974" lon="5.44371">
        <ele>365.57</ele>
        <time>2021-05-23T07:32:53.000Z</time>
      </trkpt>
      <trkpt lat="43.37958" lon="5.44385">
        <ele>363.07</ele>
        <time>2021-05-23T07:32:58.000Z</time>
      </trkpt>
      <trkpt lat="43.37944" lon="5.44403">
        <ele>362.22</ele>
        <time>2021-05-23T07:33:02.000Z</time>
      </trkpt>
      <trkpt lat="43.37925" lon="5.44411">
        <ele>360.53</ele>
        <time>2021-05-23T07:33:07.000Z</time>
      </trkpt>
      <trkpt lat="43.37906" lon="5.44413">
        <ele>357.97</ele>
        <time>2021-05-23T07:33:14.000Z</time>
      </trkpt>
      <trkpt lat="43.37899" lon="5.44389">
        <ele>354.59</ele>
        <time>2021-05-23T07:33:23.000Z</time>
      </trkpt>
      <trkpt lat="43.37896" lon="5.44363">
        <ele>351.89</ele>
        <time>2021-05-23T07:33:30.000Z</time>
      </trkpt>
      <trkpt lat="43.3789" lon="5.4434">
        <ele>349.9</ele>
        <time>2021-05-23T07:33:38.000Z</time>
      </trkpt>
      <trkpt lat="43.3788" lon="5.44317">
        <ele>345.26</ele>
        <time>2021-05-23T07:33:47.000Z</time>
      </trkpt>
      <trkpt lat="43.37884" lon="5.4429">
        <ele>341.9</ele>
        <time>2021-05-23T07:33:55.000Z</time>
      </trkpt>
      <trkpt lat="43.37875" lon="5.44266">
        <ele>340.62</ele>
        <time>2021-05-23T07:34:02.000Z</time>
      </trkpt>
      <trkpt lat="43.37859" lon="5.4425">
        <ele>341.13</ele>
        <time>2021-05-23T07:34:08.000Z</time>
      </trkpt>
      <trkpt lat="43.37841" lon="5.44237">
        <ele>339.72</ele>
        <time>2021-05-23T07:34:15.000Z</time>
      </trkpt>
      <trkpt lat="43.37822" lon="5.44232">
        <ele>336.23</ele>
        <time>2021-05-23T07:34:23.000Z</time>
      </trkpt>
      <trkpt lat="43.37803" lon="5.44226">
        <ele>331.71</ele>
        <time>2021-05-23T07:34:31.000Z</time>
      </trkpt>
      <trkpt lat="43.3779" lon="5.44205">
        <ele>328.93</ele>
        <time>2021-05-23T07:34:37.000Z</time>
      </trkpt>
      <trkpt lat="43.37795" lon="5.44177">
        <ele>327.38</ele>
        <time>2021-05-23T07:34:43.000Z</time>
      </trkpt>
      <trkpt lat="43.37802" lon="5.44152">
        <ele>323.76</ele>
        <time>2021-05-23T07:34:49.000Z</time>
      </trkpt>
      <trkpt lat="43.3781" lon="5.44127">
        <ele>319.93</ele>
        <time>2021-05-23T07:34:55.000Z</time>
      </trkpt>
      <trkpt lat="43.37796" lon="5.4411">
        <ele>316.19</ele>
        <time>2021-05-23T07:35:01.000Z</time>
      </trkpt>
      <trkpt lat="43.37777" lon="5.44124">
        <ele>316.16</ele>
        <time>2021-05-23T07:35:04.000Z</time>
      </trkpt>
      <trkpt lat="43.37761" lon="5.44135">
        <ele>317.12</ele>
        <time>2021-05-23T07:35:09.000Z</time>
      </trkpt>
      <trkpt lat="43.37742" lon="5.44148">
        <ele>315.91</ele>
        <time>2021-05-23T07:35:13.000Z</time>
      </trkpt>
      <trkpt lat="43.37724" lon="5.44159">
        <ele>316.1</ele>
        <time>2021-05-23T07:35:17.000Z</time>
      </trkpt>
      <trkpt lat="43.37705" lon="5.44157">
        <ele>315.46</ele>
        <time>2021-05-23T07:35:22.000Z</time>
      </trkpt>
      <trkpt lat="43.37686" lon="5.44156">
        <ele>316.34</ele>
        <time>2021-05-23T07:35:26.000Z</time>
      </trkpt>
      <trkpt lat="43.37665" lon="5.4415">
        <ele>316.73</ele>
        <time>2021-05-23T07:35:32.000Z</time>
      </trkpt>
      <trkpt lat="43.3765" lon="5.44134">
        <ele>315.93</ele>
        <time>2021-05-23T07:35:36.000Z</time>
      </trkpt>
      <trkpt lat="43.37636" lon="5.44116">
        <ele>315.16</ele>
        <time>2021-05-23T07:35:40.000Z</time>
      </trkpt>
      <trkpt lat="43.37628" lon="5.44094">
        <ele>315.41</ele>
        <time>2021-05-23T07:35:45.000Z</time>
      </trkpt>
      <trkpt lat="43.37623" lon="5.4407">
        <ele>316.09</ele>
        <time>2021-05-23T07:35:51.000Z</time>
      </trkpt>
      <trkpt lat="43.37618" lon="5.44046">
        <ele>318.78</ele>
        <time>2021-05-23T07:36:01.000Z</time>
      </trkpt>
      <trkpt lat="43.376" lon="5.44036">
        <ele>320.52</ele>
        <time>2021-05-23T07:36:11.000Z</time>
      </trkpt>
      <trkpt lat="43.37595" lon="5.4401">
        <ele>321.22</ele>
        <time>2021-05-23T07:36:20.000Z</time>
      </trkpt>
      <trkpt lat="43.37592" lon="5.43986">
        <ele>321.52</ele>
        <time>2021-05-23T07:36:29.000Z</time>
      </trkpt>
      <trkpt lat="43.37586" lon="5.43962">
        <ele>321.36</ele>
        <time>2021-05-23T07:36:38.000Z</time>
      </trkpt>
      <trkpt lat="43.37592" lon="5.43937">
        <ele>320.7</ele>
        <time>2021-05-23T07:36:47.000Z</time>
      </trkpt>
      <trkpt lat="43.37606" lon="5.43917">
        <ele>319.25</ele>
        <time>2021-05-23T07:36:55.000Z</time>
      </trkpt>
      <trkpt lat="43.37617" lon="5.43894">
        <ele>318.77</ele>
        <time>2021-05-23T07:37:03.000Z</time>
      </trkpt>
      <trkpt lat="43.37626" lon="5.43871">
        <ele>317.56</ele>
        <time>2021-05-23T07:37:12.000Z</time>
      </trkpt>
      <trkpt lat="43.37636" lon="5.43849">
        <ele>313.2</ele>
        <time>2021-05-23T07:37:20.000Z</time>
      </trkpt>
      <trkpt lat="43.37624" lon="5.4383">
        <ele>309.71</ele>
        <time>2021-05-23T07:37:26.000Z</time>
      </trkpt>
      <trkpt lat="43.37604" lon="5.43836">
        <ele>309.63</ele>
        <time>2021-05-23T07:37:31.000Z</time>
      </trkpt>
      <trkpt lat="43.37586" lon="5.43841">
        <ele>309.62</ele>
        <time>2021-05-23T07:37:35.000Z</time>
      </trkpt>
      <trkpt lat="43.37567" lon="5.43846">
        <ele>309.87</ele>
        <time>2021-05-23T07:37:40.000Z</time>
      </trkpt>
      <trkpt lat="43.37547" lon="5.43857">
        <ele>309.96</ele>
        <time>2021-05-23T07:37:46.000Z</time>
      </trkpt>
      <trkpt lat="43.37529" lon="5.4387">
        <ele>310.42</ele>
        <time>2021-05-23T07:37:52.000Z</time>
      </trkpt>
      <trkpt lat="43.37511" lon="5.43882">
        <ele>310.51</ele>
        <time>2021-05-23T07:37:58.000Z</time>
      </trkpt>
      <trkpt lat="43.37493" lon="5.43899">
        <ele>310.86</ele>
        <time>2021-05-23T07:38:04.000Z</time>
      </trkpt>
      <trkpt lat="43.37476" lon="5.43915">
        <ele>310.92</ele>
        <time>2021-05-23T07:38:10.000Z</time>
      </trkpt>
      <trkpt lat="43.37465" lon="5.43937">
        <ele>310.47</ele>
        <time>2021-05-23T07:38:16.000Z</time>
      </trkpt>
      <trkpt lat="43.37454" lon="5.43958">
        <ele>310.94</ele>
        <time>2021-05-23T07:38:21.000Z</time>
      </trkpt>
      <trkpt lat="43.37438" lon="5.43978">
        <ele>312.16</ele>
        <time>2021-05-23T07:38:27.000Z</time>
      </trkpt>
      <trkpt lat="43.37423" lon="5.43996">
        <ele>313.72</ele>
        <time>2021-05-23T07:38:34.000Z</time>
      </trkpt>
      <trkpt lat="43.37411" lon="5.44017">
        <ele>313.54</ele>
        <time>2021-05-23T07:38:42.000Z</time>
      </trkpt>
      <trkpt lat="43.37394" lon="5.44035">
        <ele>314.74</ele>
        <time>2021-05-23T07:38:49.000Z</time>
      </trkpt>
      <trkpt lat="43.37375" lon="5.44044">
        <ele>315.19</ele>
        <time>2021-05-23T07:38:55.000Z</time>
      </trkpt>
      <trkpt lat="43.37356" lon="5.44045">
        <ele>315.92</ele>
        <time>2021-05-23T07:39:02.000Z</time>
      </trkpt>
      <trkpt lat="43.37366" lon="5.4402">
        <ele>317.59</ele>
        <time>2021-05-23T07:39:14.000Z</time>
      </trkpt>
      <trkpt lat="43.37381" lon="5.44005">
        <ele>318.89</ele>
        <time>2021-05-23T07:39:23.000Z</time>
      </trkpt>
      <trkpt lat="43.37382" lon="5.43978">
        <ele>320.82</ele>
        <time>2021-05-23T07:39:32.000Z</time>
      </trkpt>
      <trkpt lat="43.3738" lon="5.43951">
        <ele>321.66</ele>
        <time>2021-05-23T07:39:39.000Z</time>
      </trkpt>
      <trkpt lat="43.37383" lon="5.43924">
        <ele>322.19</ele>
        <time>2021-05-23T07:39:46.000Z</time>
      </trkpt>
      <trkpt lat="43.37387" lon="5.43898">
        <ele>322.51</ele>
        <time>2021-05-23T07:39:53.000Z</time>
      </trkpt>
      <trkpt lat="43.3739" lon="5.43871">
        <ele>323.62</ele>
        <time>2021-05-23T07:40:00.000Z</time>
      </trkpt>
      <trkpt lat="43.37395" lon="5.43844">
        <ele>324.33</ele>
        <time>2021-05-23T07:40:07.000Z</time>
      </trkpt>
      <trkpt lat="43.37401" lon="5.43818">
        <ele>324.74</ele>
        <time>2021-05-23T07:40:15.000Z</time>
      </trkpt>
      <trkpt lat="43.37408" lon="5.43795">
        <ele>325.34</ele>
        <time>2021-05-23T07:40:23.000Z</time>
      </trkpt>
      <trkpt lat="43.37419" lon="5.43774">
        <ele>325.37</ele>
        <time>2021-05-23T07:40:44.000Z</time>
      </trkpt>
      <trkpt lat="43.3743" lon="5.43753">
        <ele>326.45</ele>
        <time>2021-05-23T07:40:51.000Z</time>
      </trkpt>
      <trkpt lat="43.37444" lon="5.43735">
        <ele>326.4</ele>
        <time>2021-05-23T07:40:58.000Z</time>
      </trkpt>
      <trkpt lat="43.37458" lon="5.43717">
        <ele>326.43</ele>
        <time>2021-05-23T07:41:09.000Z</time>
      </trkpt>
      <trkpt lat="43.37467" lon="5.43694">
        <ele>326.57</ele>
        <time>2021-05-23T07:41:16.000Z</time>
      </trkpt>
      <trkpt lat="43.37476" lon="5.4367">
        <ele>326.53</ele>
        <time>2021-05-23T07:41:23.000Z</time>
      </trkpt>
      <trkpt lat="43.37474" lon="5.43695">
        <ele>328.2</ele>
        <time>2021-05-23T07:41:38.000Z</time>
      </trkpt>
      <trkpt lat="43.37466" lon="5.43718">
        <ele>328.47</ele>
        <time>2021-05-23T07:41:46.000Z</time>
      </trkpt>
      <trkpt lat="43.37462" lon="5.43743">
        <ele>331.24</ele>
        <time>2021-05-23T07:41:55.000Z</time>
      </trkpt>
      <trkpt lat="43.37461" lon="5.43768">
        <ele>334.1</ele>
        <time>2021-05-23T07:42:07.000Z</time>
      </trkpt>
      <trkpt lat="43.37473" lon="5.4379">
        <ele>335.68</ele>
        <time>2021-05-23T07:42:18.000Z</time>
      </trkpt>
      <trkpt lat="43.37491" lon="5.43796">
        <ele>336.91</ele>
        <time>2021-05-23T07:52:40.000Z</time>
      </trkpt>
      <trkpt lat="43.37507" lon="5.43782">
        <ele>338.43</ele>
        <time>2021-05-23T07:52:49.000Z</time>
      </trkpt>
      <trkpt lat="43.37522" lon="5.43767">
        <ele>341.11</ele>
        <time>2021-05-23T07:52:59.000Z</time>
      </trkpt>
      <trkpt lat="43.37537" lon="5.4375">
        <ele>342.52</ele>
        <time>2021-05-23T07:53:10.000Z</time>
      </trkpt>
      <trkpt lat="43.37554" lon="5.43736">
        <ele>344.23</ele>
        <time>2021-05-23T07:53:20.000Z</time>
      </trkpt>
      <trkpt lat="43.37569" lon="5.43721">
        <ele>346.32</ele>
        <time>2021-05-23T07:53:31.000Z</time>
      </trkpt>
      <trkpt lat="43.37582" lon="5.43702">
        <ele>347.76</ele>
        <time>2021-05-23T07:53:44.000Z</time>
      </trkpt>
      <trkpt lat="43.37592" lon="5.4368">
        <ele>349.48</ele>
        <time>2021-05-23T07:53:57.000Z</time>
      </trkpt>
      <trkpt lat="43.37602" lon="5.4366">
        <ele>353.15</ele>
        <time>2021-05-23T07:54:09.000Z</time>
      </trkpt>
      <trkpt lat="43.37612" lon="5.43637">
        <ele>355.19</ele>
        <time>2021-05-23T07:54:21.000Z</time>
      </trkpt>
      <trkpt lat="43.37618" lon="5.43613">
        <ele>357.2</ele>
        <time>2021-05-23T07:54:32.000Z</time>
      </trkpt>
      <trkpt lat="43.37621" lon="5.43589">
        <ele>359.14</ele>
        <time>2021-05-23T07:54:43.000Z</time>
      </trkpt>
      <trkpt lat="43.37635" lon="5.43571">
        <ele>360.82</ele>
        <time>2021-05-23T07:54:55.000Z</time>
      </trkpt>
      <trkpt lat="43.37651" lon="5.43558">
        <ele>363.04</ele>
        <time>2021-05-23T07:55:05.000Z</time>
      </trkpt>
      <trkpt lat="43.37668" lon="5.43545">
        <ele>364.36</ele>
        <time>2021-05-23T07:55:16.000Z</time>
      </trkpt>
      <trkpt lat="43.37684" lon="5.43528">
        <ele>365.89</ele>
        <time>2021-05-23T07:55:28.000Z</time>
      </trkpt>
      <trkpt lat="43.377" lon="5.43513">
        <ele>366.81</ele>
        <time>2021-05-23T07:55:38.000Z</time>
      </trkpt>
      <trkpt lat="43.37718" lon="5.43501">
        <ele>367.59</ele>
        <time>2021-05-23T07:55:48.000Z</time>
      </trkpt>
      <trkpt lat="43.37732" lon="5.43484">
        <ele>368.38</ele>
        <time>2021-05-23T07:55:58.000Z</time>
      </trkpt>
      <trkpt lat="43.37736" lon="5.4346">
        <ele>369.6</ele>
        <time>2021-05-23T07:56:09.000Z</time>
      </trkpt>
      <trkpt lat="43.37746" lon="5.43438">
        <ele>370.44</ele>
        <time>2021-05-23T07:56:20.000Z</time>
      </trkpt>
      <trkpt lat="43.37757" lon="5.43416">
        <ele>372.74</ele>
        <time>2021-05-23T07:56:31.000Z</time>
      </trkpt>
      <trkpt lat="43.37767" lon="5.43394">
        <ele>374.07</ele>
        <time>2021-05-23T07:56:41.000Z</time>
      </trkpt>
      <trkpt lat="43.37776" lon="5.43372">
        <ele>374.92</ele>
        <time>2021-05-23T07:56:50.000Z</time>
      </trkpt>
      <trkpt lat="43.37786" lon="5.43349">
        <ele>375.16</ele>
        <time>2021-05-23T07:56:59.000Z</time>
      </trkpt>
      <trkpt lat="43.37791" lon="5.43325">
        <ele>376.34</ele>
        <time>2021-05-23T07:57:08.000Z</time>
      </trkpt>
      <trkpt lat="43.37797" lon="5.433">
        <ele>377.73</ele>
        <time>2021-05-23T07:57:17.000Z</time>
      </trkpt>
      <trkpt lat="43.37802" lon="5.43275">
        <ele>378.4</ele>
        <time>2021-05-23T07:57:26.000Z</time>
      </trkpt>
      <trkpt lat="43.37815" lon="5.43254">
        <ele>379.61</ele>
        <time>2021-05-23T07:57:36.000Z</time>
      </trkpt>
      <trkpt lat="43.37828" lon="5.43235">
        <ele>382.08</ele>
        <time>2021-05-23T07:57:47.000Z</time>
      </trkpt>
      <trkpt lat="43.37837" lon="5.43212">
        <ele>383.41</ele>
        <time>2021-05-23T07:57:57.000Z</time>
      </trkpt>
      <trkpt lat="43.37849" lon="5.43192">
        <ele>385.74</ele>
        <time>2021-05-23T07:58:07.000Z</time>
      </trkpt>
      <trkpt lat="43.37862" lon="5.43174">
        <ele>387.94</ele>
        <time>2021-05-23T07:58:16.000Z</time>
      </trkpt>
      <trkpt lat="43.37874" lon="5.43154">
        <ele>390.53</ele>
        <time>2021-05-23T07:58:26.000Z</time>
      </trkpt>
      <trkpt lat="43.37884" lon="5.43133">
        <ele>392.63</ele>
        <time>2021-05-23T07:58:36.000Z</time>
      </trkpt>
      <trkpt lat="43.37892" lon="5.43111">
        <ele>394.18</ele>
        <time>2021-05-23T07:58:46.000Z</time>
      </trkpt>
      <trkpt lat="43.37904" lon="5.4309">
        <ele>395.4</ele>
        <time>2021-05-23T07:58:55.000Z</time>
      </trkpt>
      <trkpt lat="43.37916" lon="5.43071">
        <ele>397.15</ele>
        <time>2021-05-23T07:59:04.000Z</time>
      </trkpt>
      <trkpt lat="43.37932" lon="5.43055">
        <ele>399.08</ele>
        <time>2021-05-23T07:59:14.000Z</time>
      </trkpt>
      <trkpt lat="43.37951" lon="5.43055">
        <ele>400.11</ele>
        <time>2021-05-23T07:59:24.000Z</time>
      </trkpt>
      <trkpt lat="43.3797" lon="5.4306">
        <ele>401.87</ele>
        <time>2021-05-23T07:59:34.000Z</time>
      </trkpt>
      <trkpt lat="43.37988" lon="5.43064">
        <ele>402.32</ele>
        <time>2021-05-23T07:59:43.000Z</time>
      </trkpt>
      <trkpt lat="43.38006" lon="5.43058">
        <ele>404.39</ele>
        <time>2021-05-23T07:59:54.000Z</time>
      </trkpt>
      <trkpt lat="43.38024" lon="5.4305">
        <ele>407.2</ele>
        <time>2021-05-23T08:00:06.000Z</time>
      </trkpt>
      <trkpt lat="43.38036" lon="5.43031">
        <ele>410.01</ele>
        <time>2021-05-23T08:04:09.000Z</time>
      </trkpt>
      <trkpt lat="43.38048" lon="5.4301">
        <ele>411.64</ele>
        <time>2021-05-23T08:04:20.000Z</time>
      </trkpt>
      <trkpt lat="43.38062" lon="5.42992">
        <ele>413.49</ele>
        <time>2021-05-23T08:04:31.000Z</time>
      </trkpt>
      <trkpt lat="43.38068" lon="5.42966">
        <ele>415.58</ele>
        <time>2021-05-23T08:04:42.000Z</time>
      </trkpt>
      <trkpt lat="43.38063" lon="5.4294">
        <ele>416.64</ele>
        <time>2021-05-23T08:04:52.000Z</time>
      </trkpt>
      <trkpt lat="43.38045" lon="5.42932">
        <ele>418.45</ele>
        <time>2021-05-23T08:05:01.000Z</time>
      </trkpt>
      <trkpt lat="43.38027" lon="5.42926">
        <ele>420.54</ele>
        <time>2021-05-23T08:05:11.000Z</time>
      </trkpt>
      <trkpt lat="43.38009" lon="5.42916">
        <ele>420.91</ele>
        <time>2021-05-23T08:05:19.000Z</time>
      </trkpt>
      <trkpt lat="43.37993" lon="5.42903">
        <ele>421.93</ele>
        <time>2021-05-23T08:05:26.000Z</time>
      </trkpt>
      <trkpt lat="43.37975" lon="5.42891">
        <ele>422.96</ele>
        <time>2021-05-23T08:05:34.000Z</time>
      </trkpt>
      <trkpt lat="43.37957" lon="5.42877">
        <ele>423.76</ele>
        <time>2021-05-23T08:05:43.000Z</time>
      </trkpt>
      <trkpt lat="43.3794" lon="5.42864">
        <ele>424.52</ele>
        <time>2021-05-23T08:05:51.000Z</time>
      </trkpt>
      <trkpt lat="43.37923" lon="5.42852">
        <ele>425.03</ele>
        <time>2021-05-23T08:05:59.000Z</time>
      </trkpt>
      <trkpt lat="43.37909" lon="5.42837">
        <ele>425.97</ele>
        <time>2021-05-23T08:06:07.000Z</time>
      </trkpt>
      <trkpt lat="43.37898" lon="5.42816">
        <ele>426.47</ele>
        <time>2021-05-23T08:06:16.000Z</time>
      </trkpt>
      <trkpt lat="43.37911" lon="5.42798">
        <ele>427.96</ele>
        <time>2021-05-23T08:06:25.000Z</time>
      </trkpt>
      <trkpt lat="43.37929" lon="5.42785">
        <ele>429.43</ele>
        <time>2021-05-23T08:06:35.000Z</time>
      </trkpt>
      <trkpt lat="43.37946" lon="5.42774">
        <ele>431.62</ele>
        <time>2021-05-23T08:06:45.000Z</time>
      </trkpt>
      <trkpt lat="43.3796" lon="5.42758">
        <ele>433.04</ele>
        <time>2021-05-23T08:06:55.000Z</time>
      </trkpt>
      <trkpt lat="43.3797" lon="5.42735">
        <ele>433.73</ele>
        <time>2021-05-23T08:07:05.000Z</time>
      </trkpt>
      <trkpt lat="43.37977" lon="5.4271">
        <ele>434.78</ele>
        <time>2021-05-23T08:07:15.000Z</time>
      </trkpt>
      <trkpt lat="43.37984" lon="5.42687">
        <ele>435.52</ele>
        <time>2021-05-23T08:07:23.000Z</time>
      </trkpt>
      <trkpt lat="43.3799" lon="5.42662">
        <ele>436.53</ele>
        <time>2021-05-23T08:07:31.000Z</time>
      </trkpt>
      <trkpt lat="43.38003" lon="5.4264">
        <ele>437.12</ele>
        <time>2021-05-23T08:07:39.000Z</time>
      </trkpt>
      <trkpt lat="43.3802" lon="5.4263">
        <ele>437.65</ele>
        <time>2021-05-23T08:07:46.000Z</time>
      </trkpt>
      <trkpt lat="43.38038" lon="5.4262">
        <ele>437.98</ele>
        <time>2021-05-23T08:07:53.000Z</time>
      </trkpt>
      <trkpt lat="43.38054" lon="5.42605">
        <ele>438.9</ele>
        <time>2021-05-23T08:08:01.000Z</time>
      </trkpt>
      <trkpt lat="43.3807" lon="5.42593">
        <ele>439.51</ele>
        <time>2021-05-23T08:08:08.000Z</time>
      </trkpt>
      <trkpt lat="43.38086" lon="5.42576">
        <ele>440.24</ele>
        <time>2021-05-23T08:08:16.000Z</time>
      </trkpt>
      <trkpt lat="43.38089" lon="5.42548">
        <ele>440.7</ele>
        <time>2021-05-23T08:08:23.000Z</time>
      </trkpt>
      <trkpt lat="43.38085" lon="5.42522">
        <ele>441.24</ele>
        <time>2021-05-23T08:08:29.000Z</time>
      </trkpt>
      <trkpt lat="43.38081" lon="5.42495">
        <ele>441.26</ele>
        <time>2021-05-23T08:08:35.000Z</time>
      </trkpt>
      <trkpt lat="43.3807" lon="5.42473">
        <ele>441.28</ele>
        <time>2021-05-23T08:08:40.000Z</time>
      </trkpt>
      <trkpt lat="43.38054" lon="5.42455">
        <ele>441.9</ele>
        <time>2021-05-23T08:08:46.000Z</time>
      </trkpt>
      <trkpt lat="43.38039" lon="5.4244">
        <ele>442.2</ele>
        <time>2021-05-23T08:08:51.000Z</time>
      </trkpt>
      <trkpt lat="43.38022" lon="5.42428">
        <ele>442.46</ele>
        <time>2021-05-23T08:08:57.000Z</time>
      </trkpt>
      <trkpt lat="43.38005" lon="5.42413">
        <ele>443.69</ele>
        <time>2021-05-23T08:09:04.000Z</time>
      </trkpt>
      <trkpt lat="43.3799" lon="5.424">
        <ele>442.89</ele>
        <time>2021-05-23T08:09:09.000Z</time>
      </trkpt>
      <trkpt lat="43.37974" lon="5.42386">
        <ele>442.27</ele>
        <time>2021-05-23T08:09:14.000Z</time>
      </trkpt>
      <trkpt lat="43.37958" lon="5.42367">
        <ele>442.17</ele>
        <time>2021-05-23T08:09:19.000Z</time>
      </trkpt>
      <trkpt lat="43.37946" lon="5.42348">
        <ele>441.63</ele>
        <time>2021-05-23T08:09:24.000Z</time>
      </trkpt>
      <trkpt lat="43.37941" lon="5.42319">
        <ele>441.25</ele>
        <time>2021-05-23T08:09:30.000Z</time>
      </trkpt>
      <trkpt lat="43.37947" lon="5.42292">
        <ele>441.05</ele>
        <time>2021-05-23T08:09:35.000Z</time>
      </trkpt>
      <trkpt lat="43.37954" lon="5.42266">
        <ele>442.45</ele>
        <time>2021-05-23T08:09:41.000Z</time>
      </trkpt>
      <trkpt lat="43.37964" lon="5.42245">
        <ele>443.15</ele>
        <time>2021-05-23T08:09:48.000Z</time>
      </trkpt>
      <trkpt lat="43.37981" lon="5.42231">
        <ele>445.17</ele>
        <time>2021-05-23T08:09:56.000Z</time>
      </trkpt>
      <trkpt lat="43.37995" lon="5.42214">
        <ele>446.2</ele>
        <time>2021-05-23T08:10:04.000Z</time>
      </trkpt>
      <trkpt lat="43.38006" lon="5.42194">
        <ele>447.65</ele>
        <time>2021-05-23T08:10:13.000Z</time>
      </trkpt>
      <trkpt lat="43.38014" lon="5.4217">
        <ele>448.65</ele>
        <time>2021-05-23T08:10:22.000Z</time>
      </trkpt>
      <trkpt lat="43.38018" lon="5.42145">
        <ele>449.54</ele>
        <time>2021-05-23T08:10:30.000Z</time>
      </trkpt>
      <trkpt lat="43.38019" lon="5.42118">
        <ele>450.05</ele>
        <time>2021-05-23T08:10:38.000Z</time>
      </trkpt>
      <trkpt lat="43.3802" lon="5.42091">
        <ele>450.41</ele>
        <time>2021-05-23T08:10:45.000Z</time>
      </trkpt>
      <trkpt lat="43.38021" lon="5.42062">
        <ele>451.17</ele>
        <time>2021-05-23T08:10:53.000Z</time>
      </trkpt>
      <trkpt lat="43.38023" lon="5.42036">
        <ele>452.37</ele>
        <time>2021-05-23T08:11:02.000Z</time>
      </trkpt>
      <trkpt lat="43.38038" lon="5.42021">
        <ele>453.64</ele>
        <time>2021-05-23T08:12:09.000Z</time>
      </trkpt>
      <trkpt lat="43.38057" lon="5.42012">
        <ele>455.08</ele>
        <time>2021-05-23T08:12:18.000Z</time>
      </trkpt>
      <trkpt lat="43.38076" lon="5.42009">
        <ele>456.53</ele>
        <time>2021-05-23T08:12:28.000Z</time>
      </trkpt>
      <trkpt lat="43.38095" lon="5.42011">
        <ele>458.56</ele>
        <time>2021-05-23T08:12:39.000Z</time>
      </trkpt>
      <trkpt lat="43.38113" lon="5.42019">
        <ele>459.3</ele>
        <time>2021-05-23T08:12:49.000Z</time>
      </trkpt>
      <trkpt lat="43.3813" lon="5.4203">
        <ele>461.14</ele>
        <time>2021-05-23T08:12:59.000Z</time>
      </trkpt>
      <trkpt lat="43.38147" lon="5.42043">
        <ele>461.92</ele>
        <time>2021-05-23T08:13:08.000Z</time>
      </trkpt>
      <trkpt lat="43.38161" lon="5.42059">
        <ele>463.75</ele>
        <time>2021-05-23T08:13:16.000Z</time>
      </trkpt>
      <trkpt lat="43.38175" lon="5.42076">
        <ele>465.61</ele>
        <time>2021-05-23T08:13:25.000Z</time>
      </trkpt>
      <trkpt lat="43.38193" lon="5.4208">
        <ele>466.73</ele>
        <time>2021-05-23T08:13:33.000Z</time>
      </trkpt>
      <trkpt lat="43.3821" lon="5.42071">
        <ele>468.84</ele>
        <time>2021-05-23T08:13:42.000Z</time>
      </trkpt>
      <trkpt lat="43.38228" lon="5.42064">
        <ele>470.31</ele>
        <time>2021-05-23T08:13:50.000Z</time>
      </trkpt>
      <trkpt lat="43.38246" lon="5.42054">
        <ele>472.25</ele>
        <time>2021-05-23T08:13:59.000Z</time>
      </trkpt>
      <trkpt lat="43.38263" lon="5.42044">
        <ele>473.59</ele>
        <time>2021-05-23T08:14:08.000Z</time>
      </trkpt>
      <trkpt lat="43.38282" lon="5.42041">
        <ele>474.87</ele>
        <time>2021-05-23T08:14:17.000Z</time>
      </trkpt>
      <trkpt lat="43.38299" lon="5.42051">
        <ele>476.68</ele>
        <time>2021-05-23T08:14:27.000Z</time>
      </trkpt>
      <trkpt lat="43.38316" lon="5.42062">
        <ele>478.01</ele>
        <time>2021-05-23T08:14:37.000Z</time>
      </trkpt>
      <trkpt lat="43.38333" lon="5.42074">
        <ele>480.24</ele>
        <time>2021-05-23T08:14:48.000Z</time>
      </trkpt>
      <trkpt lat="43.38345" lon="5.42094">
        <ele>481.7</ele>
        <time>2021-05-23T08:14:59.000Z</time>
      </trkpt>
      <trkpt lat="43.38356" lon="5.42114">
        <ele>486.01</ele>
        <time>2021-05-23T08:15:10.000Z</time>
      </trkpt>
      <trkpt lat="43.38363" lon="5.42138">
        <ele>488.76</ele>
        <time>2021-05-23T08:15:23.000Z</time>
      </trkpt>
      <trkpt lat="43.38368" lon="5.42163">
        <ele>489.62</ele>
        <time>2021-05-23T08:15:34.000Z</time>
      </trkpt>
      <trkpt lat="43.38373" lon="5.42187">
        <ele>494.38</ele>
        <time>2021-05-23T08:15:47.000Z</time>
      </trkpt>
      <trkpt lat="43.38384" lon="5.42207">
        <ele>495.78</ele>
        <time>2021-05-23T08:15:58.000Z</time>
      </trkpt>
      <trkpt lat="43.38402" lon="5.422">
        <ele>497.82</ele>
        <time>2021-05-23T08:16:09.000Z</time>
      </trkpt>
      <trkpt lat="43.38417" lon="5.42185">
        <ele>499.2</ele>
        <time>2021-05-23T08:16:20.000Z</time>
      </trkpt>
      <trkpt lat="43.38433" lon="5.42174">
        <ele>500.4</ele>
        <time>2021-05-23T08:16:29.000Z</time>
      </trkpt>
      <trkpt lat="43.38449" lon="5.42159">
        <ele>501.96</ele>
        <time>2021-05-23T08:16:39.000Z</time>
      </trkpt>
      <trkpt lat="43.38454" lon="5.42135">
        <ele>502.97</ele>
        <time>2021-05-23T08:16:47.000Z</time>
      </trkpt>
      <trkpt lat="43.38457" lon="5.42109">
        <ele>505.03</ele>
        <time>2021-05-23T08:16:56.000Z</time>
      </trkpt>
      <trkpt lat="43.38469" lon="5.4209">
        <ele>505.78</ele>
        <time>2021-05-23T08:17:04.000Z</time>
      </trkpt>
      <trkpt lat="43.38484" lon="5.42072">
        <ele>508.79</ele>
        <time>2021-05-23T08:17:14.000Z</time>
      </trkpt>
      <trkpt lat="43.38491" lon="5.42047">
        <ele>510.43</ele>
        <time>2021-05-23T08:17:23.000Z</time>
      </trkpt>
      <trkpt lat="43.38488" lon="5.42022">
        <ele>512.47</ele>
        <time>2021-05-23T08:17:32.000Z</time>
      </trkpt>
      <trkpt lat="43.38484" lon="5.41995">
        <ele>512.99</ele>
        <time>2021-05-23T08:17:42.000Z</time>
      </trkpt>
      <trkpt lat="43.38488" lon="5.41968">
        <ele>514.45</ele>
        <time>2021-05-23T08:17:51.000Z</time>
      </trkpt>
      <trkpt lat="43.38494" lon="5.41944">
        <ele>516.56</ele>
        <time>2021-05-23T08:18:01.000Z</time>
      </trkpt>
      <trkpt lat="43.3851" lon="5.41928">
        <ele>518.16</ele>
        <time>2021-05-23T08:18:11.000Z</time>
      </trkpt>
      <trkpt lat="43.38528" lon="5.41933">
        <ele>519.47</ele>
        <time>2021-05-23T08:18:20.000Z</time>
      </trkpt>
      <trkpt lat="43.38539" lon="5.41954">
        <ele>521.4</ele>
        <time>2021-05-23T08:18:31.000Z</time>
      </trkpt>
      <trkpt lat="43.38554" lon="5.41971">
        <ele>523.81</ele>
        <time>2021-05-23T08:18:43.000Z</time>
      </trkpt>
      <trkpt lat="43.38572" lon="5.41978">
        <ele>525.32</ele>
        <time>2021-05-23T08:18:54.000Z</time>
      </trkpt>
      <trkpt lat="43.38591" lon="5.41977">
        <ele>527.42</ele>
        <time>2021-05-23T08:19:03.000Z</time>
      </trkpt>
      <trkpt lat="43.38611" lon="5.4197">
        <ele>528.28</ele>
        <time>2021-05-23T08:19:13.000Z</time>
      </trkpt>
      <trkpt lat="43.38629" lon="5.41969">
        <ele>530.23</ele>
        <time>2021-05-23T08:19:25.000Z</time>
      </trkpt>
      <trkpt lat="43.38642" lon="5.41948">
        <ele>529.45</ele>
        <time>2021-05-23T08:24:58.000Z</time>
      </trkpt>
      <trkpt lat="43.38657" lon="5.41932">
        <ele>529.4</ele>
        <time>2021-05-23T08:25:05.000Z</time>
      </trkpt>
      <trkpt lat="43.38671" lon="5.41915">
        <ele>529.52</ele>
        <time>2021-05-23T08:25:12.000Z</time>
      </trkpt>
      <trkpt lat="43.38684" lon="5.41897">
        <ele>529.34</ele>
        <time>2021-05-23T08:25:18.000Z</time>
      </trkpt>
      <trkpt lat="43.38698" lon="5.41876">
        <ele>528.78</ele>
        <time>2021-05-23T08:25:24.000Z</time>
      </trkpt>
      <trkpt lat="43.38712" lon="5.41854">
        <ele>528.06</ele>
        <time>2021-05-23T08:25:30.000Z</time>
      </trkpt>
      <trkpt lat="43.38728" lon="5.41832">
        <ele>527.09</ele>
        <time>2021-05-23T08:25:35.000Z</time>
      </trkpt>
      <trkpt lat="43.38743" lon="5.4181">
        <ele>525.19</ele>
        <time>2021-05-23T08:25:39.000Z</time>
      </trkpt>
      <trkpt lat="43.38757" lon="5.41793">
        <ele>524.68</ele>
        <time>2021-05-23T08:25:42.000Z</time>
      </trkpt>
      <trkpt lat="43.38772" lon="5.41776">
        <ele>522.03</ele>
        <time>2021-05-23T08:25:45.000Z</time>
      </trkpt>
      <trkpt lat="43.38786" lon="5.41757">
        <ele>522.1</ele>
        <time>2021-05-23T08:25:48.000Z</time>
      </trkpt>
      <trkpt lat="43.38804" lon="5.41741">
        <ele>521.97</ele>
        <time>2021-05-23T08:25:52.000Z</time>
      </trkpt>
      <trkpt lat="43.3882" lon="5.41729">
        <ele>522.52</ele>
        <time>2021-05-23T08:25:56.000Z</time>
      </trkpt>
      <trkpt lat="43.38834" lon="5.41713">
        <ele>523.59</ele>
        <time>2021-05-23T08:26:02.000Z</time>
      </trkpt>
      <trkpt lat="43.38846" lon="5.41691">
        <ele>525.02</ele>
        <time>2021-05-23T08:26:10.000Z</time>
      </trkpt>
      <trkpt lat="43.38853" lon="5.41665">
        <ele>528.09</ele>
        <time>2021-05-23T08:26:20.000Z</time>
      </trkpt>
      <trkpt lat="43.38859" lon="5.41641">
        <ele>529.57</ele>
        <time>2021-05-23T08:26:29.000Z</time>
      </trkpt>
      <trkpt lat="43.38877" lon="5.4163">
        <ele>530.97</ele>
        <time>2021-05-23T08:26:38.000Z</time>
      </trkpt>
      <trkpt lat="43.38893" lon="5.4162">
        <ele>532.33</ele>
        <time>2021-05-23T08:26:47.000Z</time>
      </trkpt>
      <trkpt lat="43.38906" lon="5.41599">
        <ele>534.15</ele>
        <time>2021-05-23T08:26:57.000Z</time>
      </trkpt>
      <trkpt lat="43.38918" lon="5.41577">
        <ele>535.05</ele>
        <time>2021-05-23T08:27:08.000Z</time>
      </trkpt>
      <trkpt lat="43.38929" lon="5.41556">
        <ele>534.3</ele>
        <time>2021-05-23T08:27:18.000Z</time>
      </trkpt>
      <trkpt lat="43.38939" lon="5.41533">
        <ele>532.32</ele>
        <time>2021-05-23T08:27:23.000Z</time>
      </trkpt>
      <trkpt lat="43.38943" lon="5.41506">
        <ele>530.04</ele>
        <time>2021-05-23T08:27:27.000Z</time>
      </trkpt>
      <trkpt lat="43.38944" lon="5.41478">
        <ele>528.76</ele>
        <time>2021-05-23T08:27:31.000Z</time>
      </trkpt>
      <trkpt lat="43.38952" lon="5.41453">
        <ele>526.93</ele>
        <time>2021-05-23T08:27:35.000Z</time>
      </trkpt>
      <trkpt lat="43.38963" lon="5.41428">
        <ele>523.35</ele>
        <time>2021-05-23T08:27:39.000Z</time>
      </trkpt>
      <trkpt lat="43.38975" lon="5.41401">
        <ele>521.04</ele>
        <time>2021-05-23T08:27:43.000Z</time>
      </trkpt>
      <trkpt lat="43.38985" lon="5.41376">
        <ele>518.75</ele>
        <time>2021-05-23T08:27:46.000Z</time>
      </trkpt>
      <trkpt lat="43.39001" lon="5.41358">
        <ele>518.19</ele>
        <time>2021-05-23T08:27:49.000Z</time>
      </trkpt>
      <trkpt lat="43.39014" lon="5.41336">
        <ele>517.55</ele>
        <time>2021-05-23T08:27:53.000Z</time>
      </trkpt>
      <trkpt lat="43.39021" lon="5.41313">
        <ele>516.8</ele>
        <time>2021-05-23T08:27:58.000Z</time>
      </trkpt>
      <trkpt lat="43.39023" lon="5.41288">
        <ele>517.07</ele>
        <time>2021-05-23T08:28:04.000Z</time>
      </trkpt>
      <trkpt lat="43.39021" lon="5.41261">
        <ele>516.42</ele>
        <time>2021-05-23T08:28:10.000Z</time>
      </trkpt>
      <trkpt lat="43.39017" lon="5.41235">
        <ele>514.26</ele>
        <time>2021-05-23T08:28:14.000Z</time>
      </trkpt>
      <trkpt lat="43.39007" lon="5.41207">
        <ele>513.65</ele>
        <time>2021-05-23T08:28:18.000Z</time>
      </trkpt>
      <trkpt lat="43.39004" lon="5.41177">
        <ele>513.43</ele>
        <time>2021-05-23T08:28:22.000Z</time>
      </trkpt>
      <trkpt lat="43.3901" lon="5.41151">
        <ele>515.6</ele>
        <time>2021-05-23T08:28:29.000Z</time>
      </trkpt>
      <trkpt lat="43.39013" lon="5.41124">
        <ele>518.72</ele>
        <time>2021-05-23T08:28:40.000Z</time>
      </trkpt>
      <trkpt lat="43.3902" lon="5.41101">
        <ele>521.68</ele>
        <time>2021-05-23T08:28:52.000Z</time>
      </trkpt>
      <trkpt lat="43.39027" lon="5.41077">
        <ele>522.6</ele>
        <time>2021-05-23T08:29:03.000Z</time>
      </trkpt>
      <trkpt lat="43.39029" lon="5.4105">
        <ele>523.53</ele>
        <time>2021-05-23T08:29:14.000Z</time>
      </trkpt>
      <trkpt lat="43.39026" lon="5.41025">
        <ele>525.23</ele>
        <time>2021-05-23T08:29:25.000Z</time>
      </trkpt>
      <trkpt lat="43.39026" lon="5.40999">
        <ele>526.64</ele>
        <time>2021-05-23T08:29:37.000Z</time>
      </trkpt>
      <trkpt lat="43.3903" lon="5.40974">
        <ele>525.83</ele>
        <time>2021-05-23T08:29:45.000Z</time>
      </trkpt>
      <trkpt lat="43.39037" lon="5.40949">
        <ele>526.83</ele>
        <time>2021-05-23T08:29:54.000Z</time>
      </trkpt>
      <trkpt lat="43.39044" lon="5.40923">
        <ele>527.63</ele>
        <time>2021-05-23T08:30:03.000Z</time>
      </trkpt>
      <trkpt lat="43.39052" lon="5.40899">
        <ele>529.68</ele>
        <time>2021-05-23T08:30:12.000Z</time>
      </trkpt>
      <trkpt lat="43.3906" lon="5.40875">
        <ele>532.36</ele>
        <time>2021-05-23T08:30:22.000Z</time>
      </trkpt>
      <trkpt lat="43.39068" lon="5.40851">
        <ele>533.93</ele>
        <time>2021-05-23T08:30:31.000Z</time>
      </trkpt>
      <trkpt lat="43.39075" lon="5.40828">
        <ele>535.95</ele>
        <time>2021-05-23T08:30:41.000Z</time>
      </trkpt>
      <trkpt lat="43.39086" lon="5.40807">
        <ele>537.71</ele>
        <time>2021-05-23T08:30:53.000Z</time>
      </trkpt>
      <trkpt lat="43.39103" lon="5.40796">
        <ele>535.11</ele>
        <time>2021-05-23T08:32:59.000Z</time>
      </trkpt>
      <trkpt lat="43.39118" lon="5.40783">
        <ele>530.86</ele>
        <time>2021-05-23T08:33:05.000Z</time>
      </trkpt>
      <trkpt lat="43.39134" lon="5.4077">
        <ele>525.6</ele>
        <time>2021-05-23T08:33:11.000Z</time>
      </trkpt>
      <trkpt lat="43.39151" lon="5.40758">
        <ele>521.05</ele>
        <time>2021-05-23T08:33:17.000Z</time>
      </trkpt>
      <trkpt lat="43.39167" lon="5.40743">
        <ele>516.9</ele>
        <time>2021-05-23T08:33:23.000Z</time>
      </trkpt>
      <trkpt lat="43.39185" lon="5.40727">
        <ele>511.7</ele>
        <time>2021-05-23T08:33:29.000Z</time>
      </trkpt>
      <trkpt lat="43.39201" lon="5.40714">
        <ele>506.58</ele>
        <time>2021-05-23T08:33:43.000Z</time>
      </trkpt>
      <trkpt lat="43.39221" lon="5.40715">
        <ele>502.83</ele>
        <time>2021-05-23T08:33:48.000Z</time>
      </trkpt>
      <trkpt lat="43.39239" lon="5.40717">
        <ele>499.17</ele>
        <time>2021-05-23T08:33:54.000Z</time>
      </trkpt>
      <trkpt lat="43.39258" lon="5.40719">
        <ele>496.77</ele>
        <time>2021-05-23T08:34:00.000Z</time>
      </trkpt>
      <trkpt lat="43.39278" lon="5.40713">
        <ele>495.1</ele>
        <time>2021-05-23T08:34:06.000Z</time>
      </trkpt>
      <trkpt lat="43.39296" lon="5.40707">
        <ele>494.37</ele>
        <time>2021-05-23T08:34:14.000Z</time>
      </trkpt>
      <trkpt lat="43.39318" lon="5.40704">
        <ele>491.27</ele>
        <time>2021-05-23T08:34:38.000Z</time>
      </trkpt>
      <trkpt lat="43.39339" lon="5.40702">
        <ele>486.77</ele>
        <time>2021-05-23T08:34:42.000Z</time>
      </trkpt>
      <trkpt lat="43.39359" lon="5.40711">
        <ele>481.13</ele>
        <time>2021-05-23T08:34:46.000Z</time>
      </trkpt>
      <trkpt lat="43.39384" lon="5.40716">
        <ele>473.99</ele>
        <time>2021-05-23T08:34:50.000Z</time>
      </trkpt>
      <trkpt lat="43.39405" lon="5.40711">
        <ele>467.53</ele>
        <time>2021-05-23T08:34:53.000Z</time>
      </trkpt>
      <trkpt lat="43.39425" lon="5.40709">
        <ele>462.62</ele>
        <time>2021-05-23T08:34:56.000Z</time>
      </trkpt>
      <trkpt lat="43.39445" lon="5.40707">
        <ele>459.46</ele>
        <time>2021-05-23T08:35:01.000Z</time>
      </trkpt>
      <trkpt lat="43.39438" lon="5.40683">
        <ele>457.24</ele>
        <time>2021-05-23T08:36:02.000Z</time>
      </trkpt>
      <trkpt lat="43.39421" lon="5.40666">
        <ele>456.15</ele>
        <time>2021-05-23T08:36:08.000Z</time>
      </trkpt>
      <trkpt lat="43.39408" lon="5.40649">
        <ele>454.14</ele>
        <time>2021-05-23T08:36:13.000Z</time>
      </trkpt>
      <trkpt lat="43.39397" lon="5.40627">
        <ele>451.32</ele>
        <time>2021-05-23T08:36:18.000Z</time>
      </trkpt>
      <trkpt lat="43.39388" lon="5.40597">
        <ele>448.7</ele>
        <time>2021-05-23T08:36:23.000Z</time>
      </trkpt>
      <trkpt lat="43.39378" lon="5.4057">
        <ele>445.8</ele>
        <time>2021-05-23T08:36:27.000Z</time>
      </trkpt>
      <trkpt lat="43.39365" lon="5.40545">
        <ele>442.75</ele>
        <time>2021-05-23T08:36:31.000Z</time>
      </trkpt>
      <trkpt lat="43.39346" lon="5.4053">
        <ele>440.05</ele>
        <time>2021-05-23T08:36:35.000Z</time>
      </trkpt>
      <trkpt lat="43.39325" lon="5.40517">
        <ele>436.47</ele>
        <time>2021-05-23T08:36:39.000Z</time>
      </trkpt>
      <trkpt lat="43.39304" lon="5.40506">
        <ele>434.02</ele>
        <time>2021-05-23T08:36:43.000Z</time>
      </trkpt>
      <trkpt lat="43.39281" lon="5.40502">
        <ele>430.44</ele>
        <time>2021-05-23T08:36:47.000Z</time>
      </trkpt>
      <trkpt lat="43.39262" lon="5.40488">
        <ele>427.62</ele>
        <time>2021-05-23T08:36:51.000Z</time>
      </trkpt>
      <trkpt lat="43.39245" lon="5.40471">
        <ele>424.56</ele>
        <time>2021-05-23T08:36:55.000Z</time>
      </trkpt>
      <trkpt lat="43.39223" lon="5.40459">
        <ele>421.13</ele>
        <time>2021-05-23T08:36:59.000Z</time>
      </trkpt>
      <trkpt lat="43.39212" lon="5.40439">
        <ele>418.84</ele>
        <time>2021-05-23T08:37:02.000Z</time>
      </trkpt>
      <trkpt lat="43.39194" lon="5.40426">
        <ele>416.85</ele>
        <time>2021-05-23T08:37:06.000Z</time>
      </trkpt>
      <trkpt lat="43.39174" lon="5.40413">
        <ele>414.01</ele>
        <time>2021-05-23T08:37:10.000Z</time>
      </trkpt>
      <trkpt lat="43.39164" lon="5.4039">
        <ele>412.81</ele>
        <time>2021-05-23T08:37:13.000Z</time>
      </trkpt>
      <trkpt lat="43.3915" lon="5.40372">
        <ele>414.28</ele>
        <time>2021-05-23T08:37:18.000Z</time>
      </trkpt>
      <trkpt lat="43.39131" lon="5.40364">
        <ele>415.71</ele>
        <time>2021-05-23T08:37:26.000Z</time>
      </trkpt>
      <trkpt lat="43.39113" lon="5.40359">
        <ele>416.67</ele>
        <time>2021-05-23T08:37:34.000Z</time>
      </trkpt>
      <trkpt lat="43.39098" lon="5.40343">
        <ele>417.86</ele>
        <time>2021-05-23T08:37:43.000Z</time>
      </trkpt>
      <trkpt lat="43.39084" lon="5.40326">
        <ele>419.09</ele>
        <time>2021-05-23T08:37:52.000Z</time>
      </trkpt>
      <trkpt lat="43.39069" lon="5.4031">
        <ele>419.78</ele>
        <time>2021-05-23T08:38:00.000Z</time>
      </trkpt>
      <trkpt lat="43.39052" lon="5.40295">
        <ele>420.7</ele>
        <time>2021-05-23T08:38:08.000Z</time>
      </trkpt>
      <trkpt lat="43.39034" lon="5.40288">
        <ele>421.34</ele>
        <time>2021-05-23T08:38:17.000Z</time>
      </trkpt>
      <trkpt lat="43.39015" lon="5.40297">
        <ele>421.92</ele>
        <time>2021-05-23T08:38:26.000Z</time>
      </trkpt>
      <trkpt lat="43.39002" lon="5.40315">
        <ele>423.21</ele>
        <time>2021-05-23T08:38:35.000Z</time>
      </trkpt>
      <trkpt lat="43.3899" lon="5.40337">
        <ele>424.91</ele>
        <time>2021-05-23T08:38:46.000Z</time>
      </trkpt>
      <trkpt lat="43.38977" lon="5.40354">
        <ele>426.9</ele>
        <time>2021-05-23T08:38:58.000Z</time>
      </trkpt>
      <trkpt lat="43.3896" lon="5.40368">
        <ele>428.84</ele>
        <time>2021-05-23T08:39:09.000Z</time>
      </trkpt>
      <trkpt lat="43.38945" lon="5.40383">
        <ele>429.62</ele>
        <time>2021-05-23T08:39:20.000Z</time>
      </trkpt>
      <trkpt lat="43.38929" lon="5.40398">
        <ele>430.97</ele>
        <time>2021-05-23T08:39:32.000Z</time>
      </trkpt>
      <trkpt lat="43.38913" lon="5.4041">
        <ele>432.1</ele>
        <time>2021-05-23T08:39:43.000Z</time>
      </trkpt>
      <trkpt lat="43.38894" lon="5.40413">
        <ele>432.77</ele>
        <time>2021-05-23T08:39:53.000Z</time>
      </trkpt>
      <trkpt lat="43.38877" lon="5.40404">
        <ele>434</ele>
        <time>2021-05-23T08:40:03.000Z</time>
      </trkpt>
      <trkpt lat="43.3886" lon="5.40416">
        <ele>436.05</ele>
        <time>2021-05-23T08:40:15.000Z</time>
      </trkpt>
      <trkpt lat="43.38869" lon="5.40438">
        <ele>436.14</ele>
        <time>2021-05-23T08:40:25.000Z</time>
      </trkpt>
      <trkpt lat="43.38878" lon="5.4046">
        <ele>437.2</ele>
        <time>2021-05-23T08:41:33.000Z</time>
      </trkpt>
      <trkpt lat="43.38887" lon="5.40483">
        <ele>437.98</ele>
        <time>2021-05-23T08:41:42.000Z</time>
      </trkpt>
      <trkpt lat="43.38894" lon="5.40508">
        <ele>439.77</ele>
        <time>2021-05-23T08:41:52.000Z</time>
      </trkpt>
      <trkpt lat="43.38903" lon="5.4053">
        <ele>441.43</ele>
        <time>2021-05-23T08:42:02.000Z</time>
      </trkpt>
      <trkpt lat="43.38908" lon="5.40556">
        <ele>442.69</ele>
        <time>2021-05-23T08:42:12.000Z</time>
      </trkpt>
      <trkpt lat="43.38911" lon="5.40581">
        <ele>444.72</ele>
        <time>2021-05-23T08:42:23.000Z</time>
      </trkpt>
      <trkpt lat="43.38913" lon="5.40607">
        <ele>446.43</ele>
        <time>2021-05-23T08:42:34.000Z</time>
      </trkpt>
      <trkpt lat="43.38914" lon="5.40634">
        <ele>448.22</ele>
        <time>2021-05-23T08:42:45.000Z</time>
      </trkpt>
      <trkpt lat="43.38914" lon="5.40661">
        <ele>450.01</ele>
        <time>2021-05-23T08:42:57.000Z</time>
      </trkpt>
      <trkpt lat="43.38916" lon="5.40686">
        <ele>451.64</ele>
        <time>2021-05-23T08:43:08.000Z</time>
      </trkpt>
      <trkpt lat="43.38919" lon="5.40712">
        <ele>453.09</ele>
        <time>2021-05-23T08:43:19.000Z</time>
      </trkpt>
      <trkpt lat="43.38925" lon="5.40735">
        <ele>454.89</ele>
        <time>2021-05-23T08:43:31.000Z</time>
      </trkpt>
      <trkpt lat="43.38931" lon="5.40759">
        <ele>456.79</ele>
        <time>2021-05-23T08:43:44.000Z</time>
      </trkpt>
      <trkpt lat="43.38934" lon="5.40785">
        <ele>458.65</ele>
        <time>2021-05-23T08:43:56.000Z</time>
      </trkpt>
      <trkpt lat="43.38932" lon="5.40811">
        <ele>460.75</ele>
        <time>2021-05-23T08:44:08.000Z</time>
      </trkpt>
      <trkpt lat="43.38928" lon="5.40836">
        <ele>463.08</ele>
        <time>2021-05-23T08:44:21.000Z</time>
      </trkpt>
      <trkpt lat="43.38922" lon="5.40861">
        <ele>464.72</ele>
        <time>2021-05-23T08:44:34.000Z</time>
      </trkpt>
      <trkpt lat="43.38905" lon="5.4087">
        <ele>466.21</ele>
        <time>2021-05-23T08:44:48.000Z</time>
      </trkpt>
      <trkpt lat="43.38885" lon="5.40874">
        <ele>468.08</ele>
        <time>2021-05-23T08:45:00.000Z</time>
      </trkpt>
      <trkpt lat="43.38868" lon="5.40887">
        <ele>470.45</ele>
        <time>2021-05-23T08:45:12.000Z</time>
      </trkpt>
      <trkpt lat="43.38859" lon="5.40908">
        <ele>472</ele>
        <time>2021-05-23T08:45:22.000Z</time>
      </trkpt>
      <trkpt lat="43.38852" lon="5.40932">
        <ele>472.93</ele>
        <time>2021-05-23T08:45:34.000Z</time>
      </trkpt>
      <trkpt lat="43.3885" lon="5.40958">
        <ele>474.87</ele>
        <time>2021-05-23T08:45:46.000Z</time>
      </trkpt>
      <trkpt lat="43.3885" lon="5.40985">
        <ele>476.05</ele>
        <time>2021-05-23T08:45:58.000Z</time>
      </trkpt>
      <trkpt lat="43.38844" lon="5.41009">
        <ele>477.66</ele>
        <time>2021-05-23T08:46:10.000Z</time>
      </trkpt>
      <trkpt lat="43.38825" lon="5.41016">
        <ele>478.77</ele>
        <time>2021-05-23T08:46:21.000Z</time>
      </trkpt>
      <trkpt lat="43.38807" lon="5.4101">
        <ele>479.34</ele>
        <time>2021-05-23T08:46:29.000Z</time>
      </trkpt>
      <trkpt lat="43.38791" lon="5.40996">
        <ele>479.49</ele>
        <time>2021-05-23T08:46:37.000Z</time>
      </trkpt>
      <trkpt lat="43.38776" lon="5.40979">
        <ele>479.38</ele>
        <time>2021-05-23T08:46:44.000Z</time>
      </trkpt>
      <trkpt lat="43.38761" lon="5.40962">
        <ele>479.72</ele>
        <time>2021-05-23T08:46:51.000Z</time>
      </trkpt>
      <trkpt lat="43.38747" lon="5.40946">
        <ele>480.55</ele>
        <time>2021-05-23T08:46:58.000Z</time>
      </trkpt>
      <trkpt lat="43.38733" lon="5.40928">
        <ele>480.96</ele>
        <time>2021-05-23T08:47:05.000Z</time>
      </trkpt>
      <trkpt lat="43.38721" lon="5.40909">
        <ele>481.38</ele>
        <time>2021-05-23T08:47:12.000Z</time>
      </trkpt>
      <trkpt lat="43.38706" lon="5.4089">
        <ele>481.54</ele>
        <time>2021-05-23T08:47:19.000Z</time>
      </trkpt>
      <trkpt lat="43.38695" lon="5.40869">
        <ele>482.28</ele>
        <time>2021-05-23T08:47:26.000Z</time>
      </trkpt>
      <trkpt lat="43.38682" lon="5.40851">
        <ele>481.83</ele>
        <time>2021-05-23T08:47:33.000Z</time>
      </trkpt>
      <trkpt lat="43.38669" lon="5.40829">
        <ele>483.44</ele>
        <time>2021-05-23T08:47:40.000Z</time>
      </trkpt>
      <trkpt lat="43.38653" lon="5.40812">
        <ele>483.46</ele>
        <time>2021-05-23T08:47:47.000Z</time>
      </trkpt>
      <trkpt lat="43.38633" lon="5.4081">
        <ele>484.93</ele>
        <time>2021-05-23T08:47:56.000Z</time>
      </trkpt>
      <trkpt lat="43.38618" lon="5.40825">
        <ele>485.99</ele>
        <time>2021-05-23T08:48:04.000Z</time>
      </trkpt>
      <trkpt lat="43.38603" lon="5.4084">
        <ele>487.07</ele>
        <time>2021-05-23T08:48:12.000Z</time>
      </trkpt>
      <trkpt lat="43.38585" lon="5.40849">
        <ele>487.56</ele>
        <time>2021-05-23T08:48:19.000Z</time>
      </trkpt>
      <trkpt lat="43.38568" lon="5.40858">
        <ele>487.89</ele>
        <time>2021-05-23T08:48:26.000Z</time>
      </trkpt>
      <trkpt lat="43.38551" lon="5.40865">
        <ele>488.39</ele>
        <time>2021-05-23T08:48:33.000Z</time>
      </trkpt>
      <trkpt lat="43.38532" lon="5.40873">
        <ele>488.88</ele>
        <time>2021-05-23T08:48:40.000Z</time>
      </trkpt>
      <trkpt lat="43.38513" lon="5.40876">
        <ele>489.15</ele>
        <time>2021-05-23T08:48:47.000Z</time>
      </trkpt>
      <trkpt lat="43.38494" lon="5.40876">
        <ele>490.75</ele>
        <time>2021-05-23T08:48:55.000Z</time>
      </trkpt>
      <trkpt lat="43.38477" lon="5.40891">
        <ele>491.92</ele>
        <time>2021-05-23T08:49:03.000Z</time>
      </trkpt>
      <trkpt lat="43.38472" lon="5.40915">
        <ele>492.4</ele>
        <time>2021-05-23T08:49:10.000Z</time>
      </trkpt>
      <trkpt lat="43.38466" lon="5.4094">
        <ele>492.92</ele>
        <time>2021-05-23T08:49:18.000Z</time>
      </trkpt>
      <trkpt lat="43.38457" lon="5.40966">
        <ele>493</ele>
        <time>2021-05-23T08:49:25.000Z</time>
      </trkpt>
      <trkpt lat="43.38447" lon="5.40987">
        <ele>493.17</ele>
        <time>2021-05-23T08:49:32.000Z</time>
      </trkpt>
      <trkpt lat="43.38438" lon="5.41009">
        <ele>493.53</ele>
        <time>2021-05-23T08:49:40.000Z</time>
      </trkpt>
      <trkpt lat="43.38428" lon="5.41031">
        <ele>494.09</ele>
        <time>2021-05-23T08:49:48.000Z</time>
      </trkpt>
      <trkpt lat="43.3843" lon="5.41056">
        <ele>494.87</ele>
        <time>2021-05-23T08:49:57.000Z</time>
      </trkpt>
      <trkpt lat="43.38447" lon="5.41064">
        <ele>495.5</ele>
        <time>2021-05-23T08:50:05.000Z</time>
      </trkpt>
      <trkpt lat="43.38467" lon="5.41066">
        <ele>495.87</ele>
        <time>2021-05-23T08:50:13.000Z</time>
      </trkpt>
      <trkpt lat="43.38485" lon="5.41069">
        <ele>496.12</ele>
        <time>2021-05-23T08:50:20.000Z</time>
      </trkpt>
      <trkpt lat="43.38506" lon="5.41072">
        <ele>496.39</ele>
        <time>2021-05-23T08:50:28.000Z</time>
      </trkpt>
      <trkpt lat="43.38525" lon="5.41072">
        <ele>497.1</ele>
        <time>2021-05-23T08:50:35.000Z</time>
      </trkpt>
      <trkpt lat="43.38544" lon="5.41072">
        <ele>497.37</ele>
        <time>2021-05-23T08:50:42.000Z</time>
      </trkpt>
      <trkpt lat="43.38565" lon="5.41075">
        <ele>497.03</ele>
        <time>2021-05-23T08:50:49.000Z</time>
      </trkpt>
      <trkpt lat="43.38584" lon="5.41079">
        <ele>496.89</ele>
        <time>2021-05-23T08:50:55.000Z</time>
      </trkpt>
      <trkpt lat="43.38603" lon="5.41088">
        <ele>497.02</ele>
        <time>2021-05-23T08:51:02.000Z</time>
      </trkpt>
      <trkpt lat="43.3862" lon="5.41099">
        <ele>497.86</ele>
        <time>2021-05-23T08:51:09.000Z</time>
      </trkpt>
      <trkpt lat="43.38636" lon="5.41114">
        <ele>498.92</ele>
        <time>2021-05-23T08:51:16.000Z</time>
      </trkpt>
      <trkpt lat="43.38647" lon="5.41135">
        <ele>499</ele>
        <time>2021-05-23T08:51:23.000Z</time>
      </trkpt>
      <trkpt lat="43.38651" lon="5.4116">
        <ele>500.02</ele>
        <time>2021-05-23T08:51:30.000Z</time>
      </trkpt>
      <trkpt lat="43.38656" lon="5.41186">
        <ele>500.73</ele>
        <time>2021-05-23T08:51:36.000Z</time>
      </trkpt>
      <trkpt lat="43.38656" lon="5.41212">
        <ele>501.28</ele>
        <time>2021-05-23T08:51:42.000Z</time>
      </trkpt>
      <trkpt lat="43.38657" lon="5.4124">
        <ele>501.62</ele>
        <time>2021-05-23T08:51:49.000Z</time>
      </trkpt>
      <trkpt lat="43.38666" lon="5.41263">
        <ele>502.21</ele>
        <time>2021-05-23T08:51:55.000Z</time>
      </trkpt>
      <trkpt lat="43.38683" lon="5.41276">
        <ele>502.16</ele>
        <time>2021-05-23T08:52:01.000Z</time>
      </trkpt>
      <trkpt lat="43.38702" lon="5.41283">
        <ele>502.17</ele>
        <time>2021-05-23T08:52:07.000Z</time>
      </trkpt>
      <trkpt lat="43.38722" lon="5.41292">
        <ele>502.12</ele>
        <time>2021-05-23T08:52:13.000Z</time>
      </trkpt>
      <trkpt lat="43.38738" lon="5.41304">
        <ele>502.76</ele>
        <time>2021-05-23T08:52:19.000Z</time>
      </trkpt>
      <trkpt lat="43.38754" lon="5.41321">
        <ele>503.8</ele>
        <time>2021-05-23T08:52:27.000Z</time>
      </trkpt>
      <trkpt lat="43.38768" lon="5.41338">
        <ele>504.78</ele>
        <time>2021-05-23T08:52:35.000Z</time>
      </trkpt>
      <trkpt lat="43.38788" lon="5.41337">
        <ele>504.88</ele>
        <time>2021-05-23T08:52:43.000Z</time>
      </trkpt>
      <trkpt lat="43.38808" lon="5.41335">
        <ele>505.86</ele>
        <time>2021-05-23T08:52:51.000Z</time>
      </trkpt>
      <trkpt lat="43.38824" lon="5.4135">
        <ele>507.12</ele>
        <time>2021-05-23T08:52:59.000Z</time>
      </trkpt>
      <trkpt lat="43.3883" lon="5.41375">
        <ele>507.72</ele>
        <time>2021-05-23T08:53:06.000Z</time>
      </trkpt>
      <trkpt lat="43.38829" lon="5.414">
        <ele>508.26</ele>
        <time>2021-05-23T08:53:13.000Z</time>
      </trkpt>
      <trkpt lat="43.38833" lon="5.41427">
        <ele>509.17</ele>
        <time>2021-05-23T08:53:21.000Z</time>
      </trkpt>
      <trkpt lat="43.38841" lon="5.41452">
        <ele>510.36</ele>
        <time>2021-05-23T08:53:29.000Z</time>
      </trkpt>
      <trkpt lat="43.38853" lon="5.41472">
        <ele>511.19</ele>
        <time>2021-05-23T08:53:37.000Z</time>
      </trkpt>
      <trkpt lat="43.38864" lon="5.41495">
        <ele>512.07</ele>
        <time>2021-05-23T08:53:45.000Z</time>
      </trkpt>
      <trkpt lat="43.38867" lon="5.41521">
        <ele>513.48</ele>
        <time>2021-05-23T08:53:54.000Z</time>
      </trkpt>
      <trkpt lat="43.3886" lon="5.41545">
        <ele>514.24</ele>
        <time>2021-05-23T08:54:02.000Z</time>
      </trkpt>
      <trkpt lat="43.38853" lon="5.4157">
        <ele>514.94</ele>
        <time>2021-05-23T08:54:11.000Z</time>
      </trkpt>
      <trkpt lat="43.38841" lon="5.41591">
        <ele>515.33</ele>
        <time>2021-05-23T08:54:20.000Z</time>
      </trkpt>
      <trkpt lat="43.38831" lon="5.41612">
        <ele>515.74</ele>
        <time>2021-05-23T08:54:28.000Z</time>
      </trkpt>
      <trkpt lat="43.38828" lon="5.41637">
        <ele>516.11</ele>
        <time>2021-05-23T08:54:36.000Z</time>
      </trkpt>
      <trkpt lat="43.38827" lon="5.41665">
        <ele>516.66</ele>
        <time>2021-05-23T08:54:45.000Z</time>
      </trkpt>
      <trkpt lat="43.38822" lon="5.4169">
        <ele>517.29</ele>
        <time>2021-05-23T08:54:53.000Z</time>
      </trkpt>
      <trkpt lat="43.38816" lon="5.41715">
        <ele>517.81</ele>
        <time>2021-05-23T08:55:01.000Z</time>
      </trkpt>
      <trkpt lat="43.38808" lon="5.41738">
        <ele>518.64</ele>
        <time>2021-05-23T08:55:10.000Z</time>
      </trkpt>
      <trkpt lat="43.38792" lon="5.4175">
        <ele>518.25</ele>
        <time>2021-05-23T08:55:19.000Z</time>
      </trkpt>
      <trkpt lat="43.38778" lon="5.41768">
        <ele>518.3</ele>
        <time>2021-05-23T08:55:27.000Z</time>
      </trkpt>
      <trkpt lat="43.38763" lon="5.41785">
        <ele>518.48</ele>
        <time>2021-05-23T08:55:35.000Z</time>
      </trkpt>
      <trkpt lat="43.38749" lon="5.41802">
        <ele>520.17</ele>
        <time>2021-05-23T08:55:42.000Z</time>
      </trkpt>
      <trkpt lat="43.38736" lon="5.41822">
        <ele>521.77</ele>
        <time>2021-05-23T08:55:51.000Z</time>
      </trkpt>
      <trkpt lat="43.38721" lon="5.4184">
        <ele>523.27</ele>
        <time>2021-05-23T08:55:59.000Z</time>
      </trkpt>
      <trkpt lat="43.38707" lon="5.41859">
        <ele>524.27</ele>
        <time>2021-05-23T08:56:07.000Z</time>
      </trkpt>
      <trkpt lat="43.38695" lon="5.41878">
        <ele>524.58</ele>
        <time>2021-05-23T08:56:15.000Z</time>
      </trkpt>
      <trkpt lat="43.38682" lon="5.41898">
        <ele>525.04</ele>
        <time>2021-05-23T08:56:23.000Z</time>
      </trkpt>
      <trkpt lat="43.38667" lon="5.41917">
        <ele>525.52</ele>
        <time>2021-05-23T08:56:31.000Z</time>
      </trkpt>
      <trkpt lat="43.38653" lon="5.41934">
        <ele>525.49</ele>
        <time>2021-05-23T08:56:38.000Z</time>
      </trkpt>
      <trkpt lat="43.3864" lon="5.41951">
        <ele>525.49</ele>
        <time>2021-05-23T08:56:45.000Z</time>
      </trkpt>
      <trkpt lat="43.38626" lon="5.41968">
        <ele>524.86</ele>
        <time>2021-05-23T08:57:35.000Z</time>
      </trkpt>
      <trkpt lat="43.38613" lon="5.41984">
        <ele>524.63</ele>
        <time>2021-05-23T08:58:41.000Z</time>
      </trkpt>
      <trkpt lat="43.386" lon="5.42004">
        <ele>525.78</ele>
        <time>2021-05-23T08:58:49.000Z</time>
      </trkpt>
      <trkpt lat="43.38589" lon="5.42025">
        <ele>527.13</ele>
        <time>2021-05-23T08:58:58.000Z</time>
      </trkpt>
      <trkpt lat="43.38583" lon="5.4205">
        <ele>528.66</ele>
        <time>2021-05-23T08:59:07.000Z</time>
      </trkpt>
      <trkpt lat="43.38578" lon="5.42077">
        <ele>529.79</ele>
        <time>2021-05-23T08:59:16.000Z</time>
      </trkpt>
      <trkpt lat="43.3857" lon="5.421">
        <ele>531.32</ele>
        <time>2021-05-23T08:59:24.000Z</time>
      </trkpt>
      <trkpt lat="43.38562" lon="5.42124">
        <ele>533.1</ele>
        <time>2021-05-23T08:59:33.000Z</time>
      </trkpt>
      <trkpt lat="43.38552" lon="5.42146">
        <ele>534.89</ele>
        <time>2021-05-23T08:59:41.000Z</time>
      </trkpt>
      <trkpt lat="43.38548" lon="5.42171">
        <ele>535.98</ele>
        <time>2021-05-23T08:59:50.000Z</time>
      </trkpt>
      <trkpt lat="43.38556" lon="5.42195">
        <ele>537.21</ele>
        <time>2021-05-23T09:00:00.000Z</time>
      </trkpt>
      <trkpt lat="43.38568" lon="5.42215">
        <ele>538.73</ele>
        <time>2021-05-23T09:00:12.000Z</time>
      </trkpt>
      <trkpt lat="43.3858" lon="5.42236">
        <ele>539.15</ele>
        <time>2021-05-23T09:00:24.000Z</time>
      </trkpt>
      <trkpt lat="43.38591" lon="5.42257">
        <ele>540.53</ele>
        <time>2021-05-23T09:00:35.000Z</time>
      </trkpt>
      <trkpt lat="43.38587" lon="5.42283">
        <ele>541.63</ele>
        <time>2021-05-23T09:00:45.000Z</time>
      </trkpt>
      <trkpt lat="43.38571" lon="5.42296">
        <ele>543.08</ele>
        <time>2021-05-23T09:00:55.000Z</time>
      </trkpt>
      <trkpt lat="43.38558" lon="5.42316">
        <ele>544.29</ele>
        <time>2021-05-23T09:01:05.000Z</time>
      </trkpt>
      <trkpt lat="43.38546" lon="5.42336">
        <ele>546.08</ele>
        <time>2021-05-23T09:01:16.000Z</time>
      </trkpt>
      <trkpt lat="43.38537" lon="5.42359">
        <ele>547.76</ele>
        <time>2021-05-23T09:01:27.000Z</time>
      </trkpt>
      <trkpt lat="43.3853" lon="5.42384">
        <ele>549.65</ele>
        <time>2021-05-23T09:01:38.000Z</time>
      </trkpt>
      <trkpt lat="43.3852" lon="5.42406">
        <ele>551.94</ele>
        <time>2021-05-23T09:01:50.000Z</time>
      </trkpt>
      <trkpt lat="43.38516" lon="5.42431">
        <ele>553.45</ele>
        <time>2021-05-23T09:02:02.000Z</time>
      </trkpt>
      <trkpt lat="43.38505" lon="5.42451">
        <ele>555</ele>
        <time>2021-05-23T09:02:12.000Z</time>
      </trkpt>
      <trkpt lat="43.38502" lon="5.42477">
        <ele>556.06</ele>
        <time>2021-05-23T09:02:22.000Z</time>
      </trkpt>
      <trkpt lat="43.38511" lon="5.42502">
        <ele>556.02</ele>
        <time>2021-05-23T09:02:32.000Z</time>
      </trkpt>
      <trkpt lat="43.3852" lon="5.42526">
        <ele>557</ele>
        <time>2021-05-23T09:02:41.000Z</time>
      </trkpt>
      <trkpt lat="43.38517" lon="5.42552">
        <ele>557.88</ele>
        <time>2021-05-23T09:02:52.000Z</time>
      </trkpt>
      <trkpt lat="43.38503" lon="5.42568">
        <ele>558.34</ele>
        <time>2021-05-23T09:03:01.000Z</time>
      </trkpt>
      <trkpt lat="43.38489" lon="5.42584">
        <ele>559.64</ele>
        <time>2021-05-23T09:03:10.000Z</time>
      </trkpt>
      <trkpt lat="43.38479" lon="5.42607">
        <ele>562.21</ele>
        <time>2021-05-23T09:03:21.000Z</time>
      </trkpt>
      <trkpt lat="43.3848" lon="5.42633">
        <ele>563.02</ele>
        <time>2021-05-23T09:03:30.000Z</time>
      </trkpt>
      <trkpt lat="43.38489" lon="5.42658">
        <ele>563.61</ele>
        <time>2021-05-23T09:03:39.000Z</time>
      </trkpt>
      <trkpt lat="43.38492" lon="5.42683">
        <ele>564.84</ele>
        <time>2021-05-23T09:03:49.000Z</time>
      </trkpt>
      <trkpt lat="43.38492" lon="5.42709">
        <ele>566.8</ele>
        <time>2021-05-23T09:04:00.000Z</time>
      </trkpt>
      <trkpt lat="43.38511" lon="5.42717">
        <ele>567.5</ele>
        <time>2021-05-23T09:04:11.000Z</time>
      </trkpt>
      <trkpt lat="43.3853" lon="5.42713">
        <ele>567.42</ele>
        <time>2021-05-23T09:04:19.000Z</time>
      </trkpt>
      <trkpt lat="43.38549" lon="5.42706">
        <ele>566.5</ele>
        <time>2021-05-23T09:04:26.000Z</time>
      </trkpt>
      <trkpt lat="43.38568" lon="5.42702">
        <ele>565.49</ele>
        <time>2021-05-23T09:04:31.000Z</time>
      </trkpt>
      <trkpt lat="43.38587" lon="5.42701">
        <ele>564.8</ele>
        <time>2021-05-23T09:04:36.000Z</time>
      </trkpt>
      <trkpt lat="43.38606" lon="5.42708">
        <ele>564.43</ele>
        <time>2021-05-23T09:04:42.000Z</time>
      </trkpt>
      <trkpt lat="43.38622" lon="5.42724">
        <ele>564.37</ele>
        <time>2021-05-23T09:04:50.000Z</time>
      </trkpt>
      <trkpt lat="43.38621" lon="5.4275">
        <ele>566.11</ele>
        <time>2021-05-23T09:04:58.000Z</time>
      </trkpt>
      <trkpt lat="43.38612" lon="5.42774">
        <ele>567.39</ele>
        <time>2021-05-23T09:05:07.000Z</time>
      </trkpt>
      <trkpt lat="43.38602" lon="5.42798">
        <ele>568.83</ele>
        <time>2021-05-23T09:05:16.000Z</time>
      </trkpt>
      <trkpt lat="43.38589" lon="5.42818">
        <ele>570.25</ele>
        <time>2021-05-23T09:05:24.000Z</time>
      </trkpt>
      <trkpt lat="43.38577" lon="5.42837">
        <ele>571.99</ele>
        <time>2021-05-23T09:05:36.000Z</time>
      </trkpt>
      <trkpt lat="43.3856" lon="5.42849">
        <ele>573.08</ele>
        <time>2021-05-23T09:05:43.000Z</time>
      </trkpt>
      <trkpt lat="43.38541" lon="5.42851">
        <ele>573.89</ele>
        <time>2021-05-23T09:05:51.000Z</time>
      </trkpt>
      <trkpt lat="43.38525" lon="5.42868">
        <ele>574.28</ele>
        <time>2021-05-23T09:06:01.000Z</time>
      </trkpt>
      <trkpt lat="43.38515" lon="5.42889">
        <ele>574.15</ele>
        <time>2021-05-23T09:06:07.000Z</time>
      </trkpt>
      <trkpt lat="43.38505" lon="5.42912">
        <ele>573.7</ele>
        <time>2021-05-23T09:06:14.000Z</time>
      </trkpt>
      <trkpt lat="43.38504" lon="5.42939">
        <ele>571.21</ele>
        <time>2021-05-23T09:06:19.000Z</time>
      </trkpt>
      <trkpt lat="43.3851" lon="5.42964">
        <ele>570.75</ele>
        <time>2021-05-23T09:06:23.000Z</time>
      </trkpt>
      <trkpt lat="43.3852" lon="5.4299">
        <ele>568.87</ele>
        <time>2021-05-23T09:06:27.000Z</time>
      </trkpt>
      <trkpt lat="43.38532" lon="5.43017">
        <ele>567.76</ele>
        <time>2021-05-23T09:06:31.000Z</time>
      </trkpt>
      <trkpt lat="43.38545" lon="5.4304">
        <ele>567.06</ele>
        <time>2021-05-23T09:06:35.000Z</time>
      </trkpt>
      <trkpt lat="43.38555" lon="5.43064">
        <ele>567.28</ele>
        <time>2021-05-23T09:06:40.000Z</time>
      </trkpt>
      <trkpt lat="43.38564" lon="5.4309">
        <ele>566.79</ele>
        <time>2021-05-23T09:06:45.000Z</time>
      </trkpt>
      <trkpt lat="43.38573" lon="5.43118">
        <ele>567.3</ele>
        <time>2021-05-23T09:06:50.000Z</time>
      </trkpt>
      <trkpt lat="43.38583" lon="5.43139">
        <ele>567.18</ele>
        <time>2021-05-23T09:06:55.000Z</time>
      </trkpt>
      <trkpt lat="43.38576" lon="5.43163">
        <ele>565.16</ele>
        <time>2021-05-23T09:11:12.000Z</time>
      </trkpt>
      <trkpt lat="43.38558" lon="5.4317">
        <ele>558.4</ele>
        <time>2021-05-23T09:11:22.000Z</time>
      </trkpt>
      <trkpt lat="43.3854" lon="5.43179">
        <ele>551.82</ele>
        <time>2021-05-23T09:11:32.000Z</time>
      </trkpt>
      <trkpt lat="43.38522" lon="5.43188">
        <ele>545.47</ele>
        <time>2021-05-23T09:11:42.000Z</time>
      </trkpt>
      <trkpt lat="43.38503" lon="5.43183">
        <ele>540.89</ele>
        <time>2021-05-23T09:11:50.000Z</time>
      </trkpt>
      <trkpt lat="43.38484" lon="5.43179">
        <ele>537.32</ele>
        <time>2021-05-23T09:11:58.000Z</time>
      </trkpt>
      <trkpt lat="43.38466" lon="5.43172">
        <ele>533.3</ele>
        <time>2021-05-23T09:12:06.000Z</time>
      </trkpt>
      <trkpt lat="43.38446" lon="5.43172">
        <ele>528.15</ele>
        <time>2021-05-23T09:12:16.000Z</time>
      </trkpt>
      <trkpt lat="43.38428" lon="5.43179">
        <ele>523.7</ele>
        <time>2021-05-23T09:12:24.000Z</time>
      </trkpt>
      <trkpt lat="43.3841" lon="5.43175">
        <ele>520.74</ele>
        <time>2021-05-23T09:12:36.000Z</time>
      </trkpt>
      <trkpt lat="43.38392" lon="5.43184">
        <ele>516.95</ele>
        <time>2021-05-23T09:12:46.000Z</time>
      </trkpt>
      <trkpt lat="43.38374" lon="5.43194">
        <ele>512.67</ele>
        <time>2021-05-23T09:12:57.000Z</time>
      </trkpt>
      <trkpt lat="43.38355" lon="5.43199">
        <ele>507.05</ele>
        <time>2021-05-23T09:13:22.000Z</time>
      </trkpt>
      <trkpt lat="43.38342" lon="5.43216">
        <ele>502.01</ele>
        <time>2021-05-23T09:13:33.000Z</time>
      </trkpt>
      <trkpt lat="43.38325" lon="5.43226">
        <ele>496.41</ele>
        <time>2021-05-23T09:13:49.000Z</time>
      </trkpt>
      <trkpt lat="43.38309" lon="5.43239">
        <ele>491.34</ele>
        <time>2021-05-23T09:14:13.000Z</time>
      </trkpt>
      <trkpt lat="43.38294" lon="5.43255">
        <ele>486.38</ele>
        <time>2021-05-23T09:14:27.000Z</time>
      </trkpt>
      <trkpt lat="43.38281" lon="5.43274">
        <ele>482.19</ele>
        <time>2021-05-23T09:15:10.000Z</time>
      </trkpt>
      <trkpt lat="43.38263" lon="5.43285">
        <ele>478.97</ele>
        <time>2021-05-23T09:15:19.000Z</time>
      </trkpt>
      <trkpt lat="43.38249" lon="5.43303">
        <ele>476.62</ele>
        <time>2021-05-23T09:15:27.000Z</time>
      </trkpt>
      <trkpt lat="43.38232" lon="5.43314">
        <ele>473.95</ele>
        <time>2021-05-23T09:15:34.000Z</time>
      </trkpt>
      <trkpt lat="43.38215" lon="5.43328">
        <ele>471.39</ele>
        <time>2021-05-23T09:15:44.000Z</time>
      </trkpt>
      <trkpt lat="43.38199" lon="5.43341">
        <ele>468.07</ele>
        <time>2021-05-23T09:15:53.000Z</time>
      </trkpt>
      <trkpt lat="43.38182" lon="5.43355">
        <ele>463.81</ele>
        <time>2021-05-23T09:16:03.000Z</time>
      </trkpt>
      <trkpt lat="43.38164" lon="5.43361">
        <ele>460.17</ele>
        <time>2021-05-23T09:16:11.000Z</time>
      </trkpt>
      <trkpt lat="43.38155" lon="5.43339">
        <ele>459.42</ele>
        <time>2021-05-23T09:16:17.000Z</time>
      </trkpt>
      <trkpt lat="43.38144" lon="5.43315">
        <ele>458.11</ele>
        <time>2021-05-23T09:16:23.000Z</time>
      </trkpt>
      <trkpt lat="43.38132" lon="5.43291">
        <ele>456.08</ele>
        <time>2021-05-23T09:16:30.000Z</time>
      </trkpt>
      <trkpt lat="43.38115" lon="5.43279">
        <ele>452.39</ele>
        <time>2021-05-23T09:16:39.000Z</time>
      </trkpt>
      <trkpt lat="43.38106" lon="5.43256">
        <ele>450.01</ele>
        <time>2021-05-23T09:16:47.000Z</time>
      </trkpt>
      <trkpt lat="43.38116" lon="5.43234">
        <ele>449.01</ele>
        <time>2021-05-23T09:16:53.000Z</time>
      </trkpt>
      <trkpt lat="43.38129" lon="5.43216">
        <ele>448.05</ele>
        <time>2021-05-23T09:16:59.000Z</time>
      </trkpt>
      <trkpt lat="43.38144" lon="5.43203">
        <ele>446.7</ele>
        <time>2021-05-23T09:17:05.000Z</time>
      </trkpt>
      <trkpt lat="43.3816" lon="5.43188">
        <ele>445.45</ele>
        <time>2021-05-23T09:17:11.000Z</time>
      </trkpt>
      <trkpt lat="43.38175" lon="5.43169">
        <ele>443.17</ele>
        <time>2021-05-23T09:17:19.000Z</time>
      </trkpt>
      <trkpt lat="43.38188" lon="5.43148">
        <ele>440.79</ele>
        <time>2021-05-23T09:17:26.000Z</time>
      </trkpt>
      <trkpt lat="43.38201" lon="5.43127">
        <ele>439.22</ele>
        <time>2021-05-23T09:17:32.000Z</time>
      </trkpt>
      <trkpt lat="43.38201" lon="5.431">
        <ele>440.13</ele>
        <time>2021-05-23T09:17:40.000Z</time>
      </trkpt>
      <trkpt lat="43.38181" lon="5.43098">
        <ele>436.73</ele>
        <time>2021-05-23T09:17:47.000Z</time>
      </trkpt>
      <trkpt lat="43.38163" lon="5.43094">
        <ele>434.16</ele>
        <time>2021-05-23T09:17:52.000Z</time>
      </trkpt>
      <trkpt lat="43.38146" lon="5.43081">
        <ele>432.39</ele>
        <time>2021-05-23T09:17:57.000Z</time>
      </trkpt>
      <trkpt lat="43.38129" lon="5.43068">
        <ele>430.35</ele>
        <time>2021-05-23T09:18:03.000Z</time>
      </trkpt>
      <trkpt lat="43.38112" lon="5.43052">
        <ele>428.43</ele>
        <time>2021-05-23T09:18:09.000Z</time>
      </trkpt>
      <trkpt lat="43.38105" lon="5.43028">
        <ele>427.18</ele>
        <time>2021-05-23T09:18:14.000Z</time>
      </trkpt>
      <trkpt lat="43.38105" lon="5.43">
        <ele>426.01</ele>
        <time>2021-05-23T09:18:19.000Z</time>
      </trkpt>
      <trkpt lat="43.38099" lon="5.42976">
        <ele>424.37</ele>
        <time>2021-05-23T09:18:24.000Z</time>
      </trkpt>
      <trkpt lat="43.38087" lon="5.42956">
        <ele>422.79</ele>
        <time>2021-05-23T09:18:31.000Z</time>
      </trkpt>
      <trkpt lat="43.38068" lon="5.42959">
        <ele>418.44</ele>
        <time>2021-05-23T09:18:42.000Z</time>
      </trkpt>
      <trkpt lat="43.38063" lon="5.42984">
        <ele>415.23</ele>
        <time>2021-05-23T09:21:35.000Z</time>
      </trkpt>
      <trkpt lat="43.3805" lon="5.43002">
        <ele>413.33</ele>
        <time>2021-05-23T09:21:39.000Z</time>
      </trkpt>
      <trkpt lat="43.38036" lon="5.43027">
        <ele>410.57</ele>
        <time>2021-05-23T09:21:43.000Z</time>
      </trkpt>
      <trkpt lat="43.38022" lon="5.43044">
        <ele>408.66</ele>
        <time>2021-05-23T09:21:46.000Z</time>
      </trkpt>
      <trkpt lat="43.38003" lon="5.43057">
        <ele>406.1</ele>
        <time>2021-05-23T09:21:49.000Z</time>
      </trkpt>
      <trkpt lat="43.37984" lon="5.43062">
        <ele>403.77</ele>
        <time>2021-05-23T09:21:52.000Z</time>
      </trkpt>
      <trkpt lat="43.37961" lon="5.43056">
        <ele>402.47</ele>
        <time>2021-05-23T09:21:56.000Z</time>
      </trkpt>
      <trkpt lat="43.37943" lon="5.43053">
        <ele>400.74</ele>
        <time>2021-05-23T09:21:59.000Z</time>
      </trkpt>
      <trkpt lat="43.37922" lon="5.43062">
        <ele>398.84</ele>
        <time>2021-05-23T09:22:03.000Z</time>
      </trkpt>
      <trkpt lat="43.37908" lon="5.43082">
        <ele>397.27</ele>
        <time>2021-05-23T09:22:06.000Z</time>
      </trkpt>
      <trkpt lat="43.37896" lon="5.43105">
        <ele>395.51</ele>
        <time>2021-05-23T09:22:09.000Z</time>
      </trkpt>
      <trkpt lat="43.37885" lon="5.43126">
        <ele>393.4</ele>
        <time>2021-05-23T09:22:12.000Z</time>
      </trkpt>
      <trkpt lat="43.37874" lon="5.43148">
        <ele>391.63</ele>
        <time>2021-05-23T09:22:15.000Z</time>
      </trkpt>
      <trkpt lat="43.37863" lon="5.43167">
        <ele>390.26</ele>
        <time>2021-05-23T09:22:18.000Z</time>
      </trkpt>
      <trkpt lat="43.37852" lon="5.43187">
        <ele>388</ele>
        <time>2021-05-23T09:22:21.000Z</time>
      </trkpt>
      <trkpt lat="43.3784" lon="5.43209">
        <ele>385.32</ele>
        <time>2021-05-23T09:22:24.000Z</time>
      </trkpt>
      <trkpt lat="43.37829" lon="5.43229">
        <ele>383.25</ele>
        <time>2021-05-23T09:22:27.000Z</time>
      </trkpt>
      <trkpt lat="43.37819" lon="5.4325">
        <ele>381.64</ele>
        <time>2021-05-23T09:22:32.000Z</time>
      </trkpt>
      <trkpt lat="43.37807" lon="5.43273">
        <ele>379.39</ele>
        <time>2021-05-23T09:22:43.000Z</time>
      </trkpt>
      <trkpt lat="43.37797" lon="5.43299">
        <ele>378.24</ele>
        <time>2021-05-23T09:22:48.000Z</time>
      </trkpt>
      <trkpt lat="43.37792" lon="5.43327">
        <ele>377.01</ele>
        <time>2021-05-23T09:22:52.000Z</time>
      </trkpt>
      <trkpt lat="43.37787" lon="5.43351">
        <ele>375.8</ele>
        <time>2021-05-23T09:22:56.000Z</time>
      </trkpt>
      <trkpt lat="43.37777" lon="5.4338">
        <ele>374.4</ele>
        <time>2021-05-23T09:23:00.000Z</time>
      </trkpt>
      <trkpt lat="43.37767" lon="5.43407">
        <ele>373.35</ele>
        <time>2021-05-23T09:23:04.000Z</time>
      </trkpt>
      <trkpt lat="43.37753" lon="5.43433">
        <ele>371.8</ele>
        <time>2021-05-23T09:23:08.000Z</time>
      </trkpt>
      <trkpt lat="43.3774" lon="5.43458">
        <ele>369.89</ele>
        <time>2021-05-23T09:23:12.000Z</time>
      </trkpt>
      <trkpt lat="43.37729" lon="5.43485">
        <ele>367.85</ele>
        <time>2021-05-23T09:23:16.000Z</time>
      </trkpt>
      <trkpt lat="43.37714" lon="5.43503">
        <ele>366.6</ele>
        <time>2021-05-23T09:23:21.000Z</time>
      </trkpt>
      <trkpt lat="43.37695" lon="5.43514">
        <ele>365.44</ele>
        <time>2021-05-23T09:23:28.000Z</time>
      </trkpt>
      <trkpt lat="43.37679" lon="5.4353">
        <ele>364.09</ele>
        <time>2021-05-23T09:23:38.000Z</time>
      </trkpt>
      <trkpt lat="43.37662" lon="5.4352">
        <ele>365.21</ele>
        <time>2021-05-23T09:23:52.000Z</time>
      </trkpt>
      <trkpt lat="43.3766" lon="5.43495">
        <ele>367.53</ele>
        <time>2021-05-23T09:24:04.000Z</time>
      </trkpt>
      <trkpt lat="43.37661" lon="5.4347">
        <ele>370.45</ele>
        <time>2021-05-23T09:24:17.000Z</time>
      </trkpt>
      <trkpt lat="43.37661" lon="5.43444">
        <ele>373.05</ele>
        <time>2021-05-23T09:24:30.000Z</time>
      </trkpt>
      <trkpt lat="43.37666" lon="5.4342">
        <ele>376.82</ele>
        <time>2021-05-23T09:24:48.000Z</time>
      </trkpt>
      <trkpt lat="43.37658" lon="5.43398">
        <ele>378.63</ele>
        <time>2021-05-23T09:25:02.000Z</time>
      </trkpt>
      <trkpt lat="43.37655" lon="5.43372">
        <ele>380.95</ele>
        <time>2021-05-23T09:25:18.000Z</time>
      </trkpt>
      <trkpt lat="43.3766" lon="5.43348">
        <ele>383.36</ele>
        <time>2021-05-23T09:25:34.000Z</time>
      </trkpt>
      <trkpt lat="43.37658" lon="5.43323">
        <ele>385.16</ele>
        <time>2021-05-23T09:25:49.000Z</time>
      </trkpt>
      <trkpt lat="43.3767" lon="5.43304">
        <ele>386.95</ele>
        <time>2021-05-23T09:26:06.000Z</time>
      </trkpt>
      <trkpt lat="43.37666" lon="5.43278">
        <ele>387.77</ele>
        <time>2021-05-23T09:26:21.000Z</time>
      </trkpt>
      <trkpt lat="43.3765" lon="5.43265">
        <ele>387.78</ele>
        <time>2021-05-23T09:26:34.000Z</time>
      </trkpt>
      <trkpt lat="43.37634" lon="5.43252">
        <ele>386.8</ele>
        <time>2021-05-23T09:26:47.000Z</time>
      </trkpt>
      <trkpt lat="43.37615" lon="5.43241">
        <ele>384.35</ele>
        <time>2021-05-23T09:27:34.000Z</time>
      </trkpt>
      <trkpt lat="43.37597" lon="5.43247">
        <ele>381.72</ele>
        <time>2021-05-23T09:27:44.000Z</time>
      </trkpt>
      <trkpt lat="43.37587" lon="5.43223">
        <ele>379.68</ele>
        <time>2021-05-23T09:27:53.000Z</time>
      </trkpt>
      <trkpt lat="43.37575" lon="5.43204">
        <ele>376.75</ele>
        <time>2021-05-23T09:28:06.000Z</time>
      </trkpt>
      <trkpt lat="43.37559" lon="5.4322">
        <ele>373.87</ele>
        <time>2021-05-23T09:28:15.000Z</time>
      </trkpt>
      <trkpt lat="43.37542" lon="5.43234">
        <ele>370.31</ele>
        <time>2021-05-23T09:28:26.000Z</time>
      </trkpt>
      <trkpt lat="43.37523" lon="5.43234">
        <ele>366.06</ele>
        <time>2021-05-23T09:28:35.000Z</time>
      </trkpt>
      <trkpt lat="43.37505" lon="5.43228">
        <ele>362.13</ele>
        <time>2021-05-23T09:28:44.000Z</time>
      </trkpt>
      <trkpt lat="43.3749" lon="5.43245">
        <ele>358.08</ele>
        <time>2021-05-23T09:28:53.000Z</time>
      </trkpt>
      <trkpt lat="43.37473" lon="5.4326">
        <ele>353.2</ele>
        <time>2021-05-23T09:29:03.000Z</time>
      </trkpt>
      <trkpt lat="43.37455" lon="5.4327">
        <ele>348.84</ele>
        <time>2021-05-23T09:29:12.000Z</time>
      </trkpt>
      <trkpt lat="43.37444" lon="5.43291">
        <ele>344.48</ele>
        <time>2021-05-23T09:29:26.000Z</time>
      </trkpt>
      <trkpt lat="43.37427" lon="5.43297">
        <ele>340.91</ele>
        <time>2021-05-23T09:30:05.000Z</time>
      </trkpt>
      <trkpt lat="43.37429" lon="5.43324">
        <ele>337.43</ele>
        <time>2021-05-23T09:30:15.000Z</time>
      </trkpt>
      <trkpt lat="43.37432" lon="5.43351">
        <ele>334.77</ele>
        <time>2021-05-23T09:30:22.000Z</time>
      </trkpt>
      <trkpt lat="43.37422" lon="5.43373">
        <ele>332.78</ele>
        <time>2021-05-23T09:30:28.000Z</time>
      </trkpt>
      <trkpt lat="43.37418" lon="5.434">
        <ele>331.71</ele>
        <time>2021-05-23T09:30:34.000Z</time>
      </trkpt>
      <trkpt lat="43.37401" lon="5.43417">
        <ele>328.84</ele>
        <time>2021-05-23T09:30:41.000Z</time>
      </trkpt>
      <trkpt lat="43.37386" lon="5.43432">
        <ele>327.05</ele>
        <time>2021-05-23T09:30:46.000Z</time>
      </trkpt>
      <trkpt lat="43.37369" lon="5.43443">
        <ele>325.96</ele>
        <time>2021-05-23T09:30:53.000Z</time>
      </trkpt>
      <trkpt lat="43.37354" lon="5.43457">
        <ele>325.67</ele>
        <time>2021-05-23T09:31:00.000Z</time>
      </trkpt>
      <trkpt lat="43.37338" lon="5.43469">
        <ele>326.32</ele>
        <time>2021-05-23T09:31:10.000Z</time>
      </trkpt>
      <trkpt lat="43.3732" lon="5.43472">
        <ele>325.85</ele>
        <time>2021-05-23T09:31:17.000Z</time>
      </trkpt>
      <trkpt lat="43.373" lon="5.43471">
        <ele>324.91</ele>
        <time>2021-05-23T09:31:23.000Z</time>
      </trkpt>
      <trkpt lat="43.3728" lon="5.43468">
        <ele>323.2</ele>
        <time>2021-05-23T09:31:28.000Z</time>
      </trkpt>
      <trkpt lat="43.37258" lon="5.43472">
        <ele>321.23</ele>
        <time>2021-05-23T09:31:33.000Z</time>
      </trkpt>
      <trkpt lat="43.37239" lon="5.43477">
        <ele>319.16</ele>
        <time>2021-05-23T09:31:37.000Z</time>
      </trkpt>
      <trkpt lat="43.37218" lon="5.43476">
        <ele>316.67</ele>
        <time>2021-05-23T09:31:41.000Z</time>
      </trkpt>
      <trkpt lat="43.372" lon="5.43475">
        <ele>314.52</ele>
        <time>2021-05-23T09:31:44.000Z</time>
      </trkpt>
      <trkpt lat="43.3718" lon="5.43478">
        <ele>312.4</ele>
        <time>2021-05-23T09:31:48.000Z</time>
      </trkpt>
      <trkpt lat="43.3717" lon="5.43457">
        <ele>310.34</ele>
        <time>2021-05-23T09:32:00.000Z</time>
      </trkpt>
      <trkpt lat="43.37163" lon="5.43432">
        <ele>306.42</ele>
        <time>2021-05-23T09:32:09.000Z</time>
      </trkpt>
      <trkpt lat="43.37155" lon="5.43409">
        <ele>302.57</ele>
        <time>2021-05-23T09:32:17.000Z</time>
      </trkpt>
      <trkpt lat="43.37142" lon="5.43387">
        <ele>297.55</ele>
        <time>2021-05-23T09:32:25.000Z</time>
      </trkpt>
      <trkpt lat="43.37134" lon="5.43364">
        <ele>294.25</ele>
        <time>2021-05-23T09:32:30.000Z</time>
      </trkpt>
      <trkpt lat="43.37138" lon="5.43338">
        <ele>294.58</ele>
        <time>2021-05-23T09:32:35.000Z</time>
      </trkpt>
      <trkpt lat="43.37148" lon="5.43315">
        <ele>296.18</ele>
        <time>2021-05-23T09:32:42.000Z</time>
      </trkpt>
      <trkpt lat="43.37129" lon="5.43318">
        <ele>294.62</ele>
        <time>2021-05-23T09:32:59.000Z</time>
      </trkpt>
      <trkpt lat="43.37113" lon="5.43332">
        <ele>294.06</ele>
        <time>2021-05-23T09:33:07.000Z</time>
      </trkpt>
      <trkpt lat="43.37094" lon="5.43338">
        <ele>293.94</ele>
        <time>2021-05-23T09:36:55.000Z</time>
      </trkpt>
      <trkpt lat="43.37077" lon="5.43327">
        <ele>293.38</ele>
        <time>2021-05-23T09:37:07.000Z</time>
      </trkpt>
      <trkpt lat="43.3707" lon="5.43304">
        <ele>290.28</ele>
        <time>2021-05-23T09:37:15.000Z</time>
      </trkpt>
      <trkpt lat="43.37062" lon="5.43282">
        <ele>286.78</ele>
        <time>2021-05-23T09:37:23.000Z</time>
      </trkpt>
      <trkpt lat="43.37056" lon="5.43256">
        <ele>283.82</ele>
        <time>2021-05-23T09:37:31.000Z</time>
      </trkpt>
      <trkpt lat="43.37048" lon="5.43231">
        <ele>280.99</ele>
        <time>2021-05-23T09:37:40.000Z</time>
      </trkpt>
      <trkpt lat="43.37038" lon="5.43211">
        <ele>280.05</ele>
        <time>2021-05-23T09:37:46.000Z</time>
      </trkpt>
      <trkpt lat="43.37035" lon="5.43187">
        <ele>279.77</ele>
        <time>2021-05-23T09:37:53.000Z</time>
      </trkpt>
      <trkpt lat="43.37019" lon="5.4317">
        <ele>280.15</ele>
        <time>2021-05-23T09:38:00.000Z</time>
      </trkpt>
      <trkpt lat="43.36998" lon="5.43176">
        <ele>280.33</ele>
        <time>2021-05-23T09:38:07.000Z</time>
      </trkpt>
      <trkpt lat="43.36979" lon="5.43182">
        <ele>280.38</ele>
        <time>2021-05-23T09:38:13.000Z</time>
      </trkpt>
      <trkpt lat="43.3696" lon="5.43182">
        <ele>280.31</ele>
        <time>2021-05-23T09:38:19.000Z</time>
      </trkpt>
      <trkpt lat="43.36942" lon="5.43175">
        <ele>280.15</ele>
        <time>2021-05-23T09:38:25.000Z</time>
      </trkpt>
      <trkpt lat="43.36923" lon="5.43166">
        <ele>280.38</ele>
        <time>2021-05-23T09:38:31.000Z</time>
      </trkpt>
      <trkpt lat="43.36905" lon="5.43168">
        <ele>280.28</ele>
        <time>2021-05-23T09:38:37.000Z</time>
      </trkpt>
      <trkpt lat="43.36889" lon="5.43186">
        <ele>280.42</ele>
        <time>2021-05-23T09:38:44.000Z</time>
      </trkpt>
      <trkpt lat="43.36874" lon="5.43202">
        <ele>280.12</ele>
        <time>2021-05-23T09:38:50.000Z</time>
      </trkpt>
      <trkpt lat="43.36855" lon="5.43212">
        <ele>279.99</ele>
        <time>2021-05-23T09:38:57.000Z</time>
      </trkpt>
      <trkpt lat="43.36837" lon="5.43215">
        <ele>280.3</ele>
        <time>2021-05-23T09:39:03.000Z</time>
      </trkpt>
      <trkpt lat="43.36816" lon="5.43213">
        <ele>280.14</ele>
        <time>2021-05-23T09:39:09.000Z</time>
      </trkpt>
      <trkpt lat="43.36797" lon="5.43204">
        <ele>280.26</ele>
        <time>2021-05-23T09:39:16.000Z</time>
      </trkpt>
      <trkpt lat="43.36779" lon="5.43191">
        <ele>280.46</ele>
        <time>2021-05-23T09:39:23.000Z</time>
      </trkpt>
      <trkpt lat="43.36761" lon="5.43186">
        <ele>280.52</ele>
        <time>2021-05-23T09:39:30.000Z</time>
      </trkpt>
      <trkpt lat="43.36741" lon="5.43188">
        <ele>280.28</ele>
        <time>2021-05-23T09:39:38.000Z</time>
      </trkpt>
      <trkpt lat="43.36725" lon="5.43202">
        <ele>280.26</ele>
        <time>2021-05-23T09:39:46.000Z</time>
      </trkpt>
      <trkpt lat="43.36706" lon="5.43213">
        <ele>279.42</ele>
        <time>2021-05-23T09:39:57.000Z</time>
      </trkpt>
      <trkpt lat="43.36688" lon="5.43214">
        <ele>277.53</ele>
        <time>2021-05-23T09:40:04.000Z</time>
      </trkpt>
      <trkpt lat="43.36671" lon="5.43222">
        <ele>275.68</ele>
        <time>2021-05-23T09:40:12.000Z</time>
      </trkpt>
      <trkpt lat="43.36653" lon="5.43232">
        <ele>272.94</ele>
        <time>2021-05-23T09:40:22.000Z</time>
      </trkpt>
      <trkpt lat="43.36635" lon="5.43229">
        <ele>270.96</ele>
        <time>2021-05-23T09:40:30.000Z</time>
      </trkpt>
      <trkpt lat="43.36616" lon="5.43233">
        <ele>269.22</ele>
        <time>2021-05-23T09:40:49.000Z</time>
      </trkpt>
      <trkpt lat="43.36597" lon="5.43237">
        <ele>267.37</ele>
        <time>2021-05-23T09:40:57.000Z</time>
      </trkpt>
      <trkpt lat="43.36578" lon="5.43238">
        <ele>265.14</ele>
        <time>2021-05-23T09:41:05.000Z</time>
      </trkpt>
      <trkpt lat="43.36558" lon="5.43239">
        <ele>262.52</ele>
        <time>2021-05-23T09:41:14.000Z</time>
      </trkpt>
      <trkpt lat="43.36539" lon="5.43238">
        <ele>260.39</ele>
        <time>2021-05-23T09:41:23.000Z</time>
      </trkpt>
      <trkpt lat="43.36541" lon="5.43265">
        <ele>257.31</ele>
        <time>2021-05-23T09:41:41.000Z</time>
      </trkpt>
      <trkpt lat="43.36553" lon="5.43284">
        <ele>255.58</ele>
        <time>2021-05-23T09:41:49.000Z</time>
      </trkpt>
      <trkpt lat="43.36545" lon="5.4331">
        <ele>255.14</ele>
        <time>2021-05-23T09:42:06.000Z</time>
      </trkpt>
      <trkpt lat="43.36533" lon="5.43332">
        <ele>254.9</ele>
        <time>2021-05-23T09:42:12.000Z</time>
      </trkpt>
      <trkpt lat="43.36528" lon="5.43357">
        <ele>254.88</ele>
        <time>2021-05-23T09:42:20.000Z</time>
      </trkpt>
      <trkpt lat="43.36522" lon="5.43383">
        <ele>254.85</ele>
        <time>2021-05-23T09:42:28.000Z</time>
      </trkpt>
      <trkpt lat="43.36515" lon="5.43408">
        <ele>254.59</ele>
        <time>2021-05-23T09:42:36.000Z</time>
      </trkpt>
      <trkpt lat="43.36497" lon="5.43403">
        <ele>249.82</ele>
        <time>2021-05-23T09:43:24.000Z</time>
      </trkpt>
      <trkpt lat="43.36502" lon="5.43376">
        <ele>247.76</ele>
        <time>2021-05-23T09:43:33.000Z</time>
      </trkpt>
      <trkpt lat="43.3651" lon="5.43352">
        <ele>245.68</ele>
        <time>2021-05-23T09:43:40.000Z</time>
      </trkpt>
      <trkpt lat="43.36516" lon="5.43327">
        <ele>243.7</ele>
        <time>2021-05-23T09:43:47.000Z</time>
      </trkpt>
      <trkpt lat="43.36515" lon="5.43302">
        <ele>241.79</ele>
        <time>2021-05-23T09:43:56.000Z</time>
      </trkpt>
      <trkpt lat="43.36501" lon="5.43284">
        <ele>240.31</ele>
        <time>2021-05-23T09:44:04.000Z</time>
      </trkpt>
      <trkpt lat="43.36481" lon="5.43278">
        <ele>238.22</ele>
        <time>2021-05-23T09:44:11.000Z</time>
      </trkpt>
      <trkpt lat="43.36463" lon="5.43274">
        <ele>236.64</ele>
        <time>2021-05-23T09:44:20.000Z</time>
      </trkpt>
      <trkpt lat="43.36445" lon="5.43274">
        <ele>235.32</ele>
        <time>2021-05-23T09:44:28.000Z</time>
      </trkpt>
      <trkpt lat="43.36462" lon="5.43285">
        <ele>233.59</ele>
        <time>2021-05-23T09:44:40.000Z</time>
      </trkpt>
      <trkpt lat="43.36481" lon="5.43297">
        <ele>232.2</ele>
        <time>2021-05-23T09:44:48.000Z</time>
      </trkpt>
      <trkpt lat="43.36461" lon="5.43302">
        <ele>227.79</ele>
        <time>2021-05-23T09:45:12.000Z</time>
      </trkpt>
      <trkpt lat="43.36443" lon="5.43305">
        <ele>225.55</ele>
        <time>2021-05-23T09:45:21.000Z</time>
      </trkpt>
      <trkpt lat="43.36424" lon="5.43306">
        <ele>222.97</ele>
        <time>2021-05-23T09:45:30.000Z</time>
      </trkpt>
      <trkpt lat="43.36406" lon="5.4331">
        <ele>220.57</ele>
        <time>2021-05-23T09:45:40.000Z</time>
      </trkpt>
      <trkpt lat="43.36388" lon="5.43316">
        <ele>217.72</ele>
        <time>2021-05-23T09:45:52.000Z</time>
      </trkpt>
      <trkpt lat="43.36405" lon="5.43324">
        <ele>216.74</ele>
        <time>2021-05-23T09:46:07.000Z</time>
      </trkpt>
      <trkpt lat="43.36423" lon="5.43324">
        <ele>216.6</ele>
        <time>2021-05-23T09:46:13.000Z</time>
      </trkpt>
      <trkpt lat="43.36417" lon="5.43348">
        <ele>216.34</ele>
        <time>2021-05-23T09:46:23.000Z</time>
      </trkpt>
      <trkpt lat="43.36402" lon="5.43361">
        <ele>216.53</ele>
        <time>2021-05-23T09:46:29.000Z</time>
      </trkpt>
      <trkpt lat="43.3639" lon="5.43382">
        <ele>216.55</ele>
        <time>2021-05-23T09:46:36.000Z</time>
      </trkpt>
      <trkpt lat="43.36377" lon="5.434">
        <ele>216.48</ele>
        <time>2021-05-23T09:46:43.000Z</time>
      </trkpt>
      <trkpt lat="43.36365" lon="5.43422">
        <ele>216.58</ele>
        <time>2021-05-23T09:46:52.000Z</time>
      </trkpt>
      <trkpt lat="43.36356" lon="5.43444">
        <ele>216.61</ele>
        <time>2021-05-23T09:47:01.000Z</time>
      </trkpt>
      <trkpt lat="43.36358" lon="5.43471">
        <ele>216.63</ele>
        <time>2021-05-23T09:47:07.000Z</time>
      </trkpt>
      <trkpt lat="43.36358" lon="5.43496">
        <ele>216.53</ele>
        <time>2021-05-23T09:47:19.000Z</time>
      </trkpt>
      <trkpt lat="43.3637" lon="5.43517">
        <ele>216.34</ele>
        <time>2021-05-23T09:47:42.000Z</time>
      </trkpt>
      <trkpt lat="43.36387" lon="5.43529">
        <ele>216.53</ele>
        <time>2021-05-23T09:47:50.000Z</time>
      </trkpt>
      <trkpt lat="43.36382" lon="5.43557">
        <ele>216.48</ele>
        <time>2021-05-23T09:47:57.000Z</time>
      </trkpt>
      <trkpt lat="43.36383" lon="5.43584">
        <ele>216.49</ele>
        <time>2021-05-23T09:48:04.000Z</time>
      </trkpt>
      <trkpt lat="43.36391" lon="5.43609">
        <ele>216.46</ele>
        <time>2021-05-23T09:48:11.000Z</time>
      </trkpt>
      <trkpt lat="43.36404" lon="5.43628">
        <ele>216.51</ele>
        <time>2021-05-23T09:48:17.000Z</time>
      </trkpt>
      <trkpt lat="43.36419" lon="5.43643">
        <ele>216.43</ele>
        <time>2021-05-23T09:48:24.000Z</time>
      </trkpt>
      <trkpt lat="43.36401" lon="5.43652">
        <ele>216.65</ele>
        <time>2021-05-23T09:48:37.000Z</time>
      </trkpt>
      <trkpt lat="43.36383" lon="5.43646">
        <ele>216.84</ele>
        <time>2021-05-23T09:56:05.000Z</time>
      </trkpt>
      <trkpt lat="43.36366" lon="5.43633">
        <ele>216.6</ele>
        <time>2021-05-23T09:56:13.000Z</time>
      </trkpt>
      <trkpt lat="43.36349" lon="5.4362">
        <ele>216.11</ele>
        <time>2021-05-23T09:56:21.000Z</time>
      </trkpt>
      <trkpt lat="43.36332" lon="5.43608">
        <ele>216.09</ele>
        <time>2021-05-23T09:56:28.000Z</time>
      </trkpt>
      <trkpt lat="43.36316" lon="5.43597">
        <ele>216.32</ele>
        <time>2021-05-23T09:56:36.000Z</time>
      </trkpt>
      <trkpt lat="43.36297" lon="5.43591">
        <ele>216.4</ele>
        <time>2021-05-23T09:56:44.000Z</time>
      </trkpt>
      <trkpt lat="43.36279" lon="5.43582">
        <ele>216.49</ele>
        <time>2021-05-23T09:56:52.000Z</time>
      </trkpt>
      <trkpt lat="43.36261" lon="5.43572">
        <ele>214.97</ele>
        <time>2021-05-23T09:57:01.000Z</time>
      </trkpt>
      <trkpt lat="43.36244" lon="5.43562">
        <ele>213.78</ele>
        <time>2021-05-23T09:57:12.000Z</time>
      </trkpt>
      <trkpt lat="43.36227" lon="5.43551">
        <ele>211.87</ele>
        <time>2021-05-23T09:57:23.000Z</time>
      </trkpt>
      <trkpt lat="43.36208" lon="5.43547">
        <ele>210.16</ele>
        <time>2021-05-23T09:57:33.000Z</time>
      </trkpt>
      <trkpt lat="43.36187" lon="5.43548">
        <ele>208.81</ele>
        <time>2021-05-23T09:57:42.000Z</time>
      </trkpt>
      <trkpt lat="43.36167" lon="5.43552">
        <ele>207.18</ele>
        <time>2021-05-23T09:57:51.000Z</time>
      </trkpt>
      <trkpt lat="43.36148" lon="5.43559">
        <ele>206.11</ele>
        <time>2021-05-23T09:58:01.000Z</time>
      </trkpt>
      <trkpt lat="43.36129" lon="5.43558">
        <ele>204.51</ele>
        <time>2021-05-23T09:58:13.000Z</time>
      </trkpt>
      <trkpt lat="43.36111" lon="5.43558">
        <ele>203.58</ele>
        <time>2021-05-23T09:58:38.000Z</time>
      </trkpt>
      <trkpt lat="43.36091" lon="5.43558">
        <ele>202.68</ele>
        <time>2021-05-23T09:58:46.000Z</time>
      </trkpt>
      <trkpt lat="43.3607" lon="5.4356">
        <ele>201.71</ele>
        <time>2021-05-23T09:58:57.000Z</time>
      </trkpt>
      <trkpt lat="43.3605" lon="5.4356">
        <ele>201.09</ele>
        <time>2021-05-23T09:59:02.000Z</time>
      </trkpt>
      <trkpt lat="43.36031" lon="5.43567">
        <ele>197.91</ele>
        <time>2021-05-23T09:59:15.000Z</time>
      </trkpt>
      <trkpt lat="43.36016" lon="5.43586">
        <ele>194.56</ele>
        <time>2021-05-23T09:59:22.000Z</time>
      </trkpt>
      <trkpt lat="43.36" lon="5.43598">
        <ele>193.37</ele>
        <time>2021-05-23T09:59:29.000Z</time>
      </trkpt>
      <trkpt lat="43.35983" lon="5.43586">
        <ele>192.74</ele>
        <time>2021-05-23T09:59:36.000Z</time>
      </trkpt>
      <trkpt lat="43.35964" lon="5.43586">
        <ele>192.3</ele>
        <time>2021-05-23T09:59:43.000Z</time>
      </trkpt>
      <trkpt lat="43.35945" lon="5.43589">
        <ele>191.45</ele>
        <time>2021-05-23T09:59:51.000Z</time>
      </trkpt>
      <trkpt lat="43.35927" lon="5.4358">
        <ele>191.65</ele>
        <time>2021-05-23T10:00:09.000Z</time>
      </trkpt>
      <trkpt lat="43.35909" lon="5.43585">
        <ele>188.62</ele>
        <time>2021-05-23T10:00:31.000Z</time>
      </trkpt>
      <trkpt lat="43.35898" lon="5.43564">
        <ele>182.07</ele>
        <time>2021-05-23T10:01:01.000Z</time>
      </trkpt>
      <trkpt lat="43.3588" lon="5.43569">
        <ele>175.85</ele>
        <time>2021-05-23T10:02:52.000Z</time>
      </trkpt>
      <trkpt lat="43.35866" lon="5.43552">
        <ele>168.71</ele>
        <time>2021-05-23T10:03:24.000Z</time>
      </trkpt>
      <trkpt lat="43.35849" lon="5.4356">
        <ele>165.81</ele>
        <time>2021-05-23T10:03:37.000Z</time>
      </trkpt>
      <trkpt lat="43.3585" lon="5.43534">
        <ele>164.62</ele>
        <time>2021-05-23T10:03:49.000Z</time>
      </trkpt>
      <trkpt lat="43.3586" lon="5.43508">
        <ele>162.87</ele>
        <time>2021-05-23T10:03:54.000Z</time>
      </trkpt>
      <trkpt lat="43.35874" lon="5.43483">
        <ele>161.24</ele>
        <time>2021-05-23T10:03:58.000Z</time>
      </trkpt>
      <trkpt lat="43.35885" lon="5.43462">
        <ele>160.39</ele>
        <time>2021-05-23T10:04:01.000Z</time>
      </trkpt>
      <trkpt lat="43.35894" lon="5.4344">
        <ele>161.39</ele>
        <time>2021-05-23T10:04:05.000Z</time>
      </trkpt>
      <trkpt lat="43.35899" lon="5.43416">
        <ele>161.9</ele>
        <time>2021-05-23T10:04:12.000Z</time>
      </trkpt>
      <trkpt lat="43.35886" lon="5.43392">
        <ele>160.55</ele>
        <time>2021-05-23T10:04:17.000Z</time>
      </trkpt>
      <trkpt lat="43.35871" lon="5.43372">
        <ele>158.93</ele>
        <time>2021-05-23T10:04:24.000Z</time>
      </trkpt>
      <trkpt lat="43.3585" lon="5.43386">
        <ele>157.75</ele>
        <time>2021-05-23T10:04:30.000Z</time>
      </trkpt>
      <trkpt lat="43.35831" lon="5.43399">
        <ele>156.58</ele>
        <time>2021-05-23T10:04:34.000Z</time>
      </trkpt>
      <trkpt lat="43.35813" lon="5.4341">
        <ele>155.65</ele>
        <time>2021-05-23T10:04:37.000Z</time>
      </trkpt>
      <trkpt lat="43.35793" lon="5.4342">
        <ele>154.92</ele>
        <time>2021-05-23T10:04:40.000Z</time>
      </trkpt>
      <trkpt lat="43.35773" lon="5.43428">
        <ele>154.24</ele>
        <time>2021-05-23T10:04:43.000Z</time>
      </trkpt>
      <trkpt lat="43.35751" lon="5.43433">
        <ele>153.43</ele>
        <time>2021-05-23T10:04:46.000Z</time>
      </trkpt>
      <trkpt lat="43.35727" lon="5.43429">
        <ele>151.97</ele>
        <time>2021-05-23T10:04:49.000Z</time>
      </trkpt>
      <trkpt lat="43.35703" lon="5.43424">
        <ele>150.97</ele>
        <time>2021-05-23T10:04:52.000Z</time>
      </trkpt>
      <trkpt lat="43.35678" lon="5.43423">
        <ele>150.19</ele>
        <time>2021-05-23T10:04:55.000Z</time>
      </trkpt>
      <trkpt lat="43.35654" lon="5.43425">
        <ele>149.12</ele>
        <time>2021-05-23T10:04:58.000Z</time>
      </trkpt>
      <trkpt lat="43.3563" lon="5.43431">
        <ele>148.49</ele>
        <time>2021-05-23T10:05:01.000Z</time>
      </trkpt>
      <trkpt lat="43.35604" lon="5.43435">
        <ele>147.52</ele>
        <time>2021-05-23T10:05:04.000Z</time>
      </trkpt>
      <trkpt lat="43.3558" lon="5.43449">
        <ele>146.94</ele>
        <time>2021-05-23T10:05:07.000Z</time>
      </trkpt>
      <trkpt lat="43.35555" lon="5.43458">
        <ele>145.96</ele>
        <time>2021-05-23T10:05:10.000Z</time>
      </trkpt>
      <trkpt lat="43.35531" lon="5.43466">
        <ele>145.3</ele>
        <time>2021-05-23T10:05:13.000Z</time>
      </trkpt>
      <trkpt lat="43.35514" lon="5.43476">
        <ele>144.79</ele>
        <time>2021-05-23T10:05:15.000Z</time>
      </trkpt>
      <trkpt lat="43.35488" lon="5.43486">
        <ele>143.57</ele>
        <time>2021-05-23T10:05:18.000Z</time>
      </trkpt>
      <trkpt lat="43.35465" lon="5.43501">
        <ele>142.5</ele>
        <time>2021-05-23T10:05:21.000Z</time>
      </trkpt>
      <trkpt lat="43.35444" lon="5.43516">
        <ele>141.7</ele>
        <time>2021-05-23T10:05:24.000Z</time>
      </trkpt>
      <trkpt lat="43.35422" lon="5.43534">
        <ele>141.1</ele>
        <time>2021-05-23T10:05:27.000Z</time>
      </trkpt>
      <trkpt lat="43.35406" lon="5.43558">
        <ele>140.34</ele>
        <time>2021-05-23T10:05:30.000Z</time>
      </trkpt>
      <trkpt lat="43.35395" lon="5.43582">
        <ele>139.71</ele>
        <time>2021-05-23T10:05:33.000Z</time>
      </trkpt>
      <trkpt lat="43.35377" lon="5.43603">
        <ele>139.1</ele>
        <time>2021-05-23T10:05:36.000Z</time>
      </trkpt>
      <trkpt lat="43.35361" lon="5.43623">
        <ele>138.63</ele>
        <time>2021-05-23T10:05:39.000Z</time>
      </trkpt>
      <trkpt lat="43.35342" lon="5.43637">
        <ele>138.09</ele>
        <time>2021-05-23T10:05:42.000Z</time>
      </trkpt>
      <trkpt lat="43.35321" lon="5.43638">
        <ele>137.46</ele>
        <time>2021-05-23T10:05:45.000Z</time>
      </trkpt>
      <trkpt lat="43.35298" lon="5.43639">
        <ele>136.79</ele>
        <time>2021-05-23T10:05:48.000Z</time>
      </trkpt>
      <trkpt lat="43.35276" lon="5.43642">
        <ele>136.22</ele>
        <time>2021-05-23T10:05:51.000Z</time>
      </trkpt>
      <trkpt lat="43.35256" lon="5.43641">
        <ele>135.87</ele>
        <time>2021-05-23T10:05:54.000Z</time>
      </trkpt>
      <trkpt lat="43.35237" lon="5.43643">
        <ele>135.67</ele>
        <time>2021-05-23T10:05:57.000Z</time>
      </trkpt>
      <trkpt lat="43.35219" lon="5.43648">
        <ele>134.95</ele>
        <time>2021-05-23T10:06:01.000Z</time>
      </trkpt>
      <trkpt lat="43.35206" lon="5.43668">
        <ele>134.67</ele>
        <time>2021-05-23T10:06:10.000Z</time>
      </trkpt>
      <trkpt lat="43.35208" lon="5.43694">
        <ele>135.35</ele>
        <time>2021-05-23T10:06:14.000Z</time>
      </trkpt>
      <trkpt lat="43.3521" lon="5.43724">
        <ele>136.46</ele>
        <time>2021-05-23T10:06:19.000Z</time>
      </trkpt>
      <trkpt lat="43.35204" lon="5.4375">
        <ele>137.46</ele>
        <time>2021-05-23T10:06:24.000Z</time>
      </trkpt>
      <trkpt lat="43.35197" lon="5.43773">
        <ele>138.63</ele>
        <time>2021-05-23T10:06:29.000Z</time>
      </trkpt>
      <trkpt lat="43.35191" lon="5.43799">
        <ele>139.6</ele>
        <time>2021-05-23T10:06:34.000Z</time>
      </trkpt>
      <trkpt lat="43.35189" lon="5.43828">
        <ele>141.12</ele>
        <time>2021-05-23T10:06:40.000Z</time>
      </trkpt>
      <trkpt lat="43.35184" lon="5.43856">
        <ele>142.37</ele>
        <time>2021-05-23T10:06:46.000Z</time>
      </trkpt>
      <trkpt lat="43.35187" lon="5.43881">
        <ele>144.61</ele>
        <time>2021-05-23T10:06:52.000Z</time>
      </trkpt>
      <trkpt lat="43.35184" lon="5.43909">
        <ele>145.69</ele>
        <time>2021-05-23T10:07:03.000Z</time>
      </trkpt>
      <trkpt lat="43.35188" lon="5.43935">
        <ele>146.79</ele>
        <time>2021-05-23T10:07:09.000Z</time>
      </trkpt>
      <trkpt lat="43.35185" lon="5.43962">
        <ele>147.88</ele>
        <time>2021-05-23T10:07:17.000Z</time>
      </trkpt>
      <trkpt lat="43.35177" lon="5.43989">
        <ele>146.88</ele>
        <time>2021-05-23T10:07:21.000Z</time>
      </trkpt>
      <trkpt lat="43.35162" lon="5.44009">
        <ele>145.43</ele>
        <time>2021-05-23T10:07:24.000Z</time>
      </trkpt>
      <trkpt lat="43.35158" lon="5.44041">
        <ele>144.15</ele>
        <time>2021-05-23T10:07:27.000Z</time>
      </trkpt>
      <trkpt lat="43.35146" lon="5.44072">
        <ele>142.82</ele>
        <time>2021-05-23T10:07:30.000Z</time>
      </trkpt>
      <trkpt lat="43.35129" lon="5.441">
        <ele>141.3</ele>
        <time>2021-05-23T10:07:33.000Z</time>
      </trkpt>
      <trkpt lat="43.35117" lon="5.4413">
        <ele>139.88</ele>
        <time>2021-05-23T10:07:36.000Z</time>
      </trkpt>
      <trkpt lat="43.35111" lon="5.44154">
        <ele>138.91</ele>
        <time>2021-05-23T10:07:38.000Z</time>
      </trkpt>
      <trkpt lat="43.35099" lon="5.44178">
        <ele>137.82</ele>
        <time>2021-05-23T10:07:41.000Z</time>
      </trkpt>
      <trkpt lat="43.3509" lon="5.44201">
        <ele>136.95</ele>
        <time>2021-05-23T10:08:41.000Z</time>
      </trkpt>
      <trkpt lat="43.35082" lon="5.44225">
        <ele>136.81</ele>
        <time>2021-05-23T10:08:49.000Z</time>
      </trkpt>
      <trkpt lat="43.35097" lon="5.44247">
        <ele>136.7</ele>
        <time>2021-05-23T10:08:59.000Z</time>
      </trkpt>
      <trkpt lat="43.35114" lon="5.44259">
        <ele>137.53</ele>
        <time>2021-05-23T10:09:03.000Z</time>
      </trkpt>
      <trkpt lat="43.35132" lon="5.44269">
        <ele>138.23</ele>
        <time>2021-05-23T10:09:07.000Z</time>
      </trkpt>
      <trkpt lat="43.35151" lon="5.44277">
        <ele>139.04</ele>
        <time>2021-05-23T10:09:12.000Z</time>
      </trkpt>
      <trkpt lat="43.35157" lon="5.44303">
        <ele>138.85</ele>
        <time>2021-05-23T10:09:17.000Z</time>
      </trkpt>
      <trkpt lat="43.35167" lon="5.44324">
        <ele>138.74</ele>
        <time>2021-05-23T10:09:21.000Z</time>
      </trkpt>
      <trkpt lat="43.35177" lon="5.44345">
        <ele>139.01</ele>
        <time>2021-05-23T10:09:25.000Z</time>
      </trkpt>
      <trkpt lat="43.35187" lon="5.44368">
        <ele>139.39</ele>
        <time>2021-05-23T10:09:29.000Z</time>
      </trkpt>
      <trkpt lat="43.352" lon="5.44392">
        <ele>139.88</ele>
        <time>2021-05-23T10:09:34.000Z</time>
      </trkpt>
      <trkpt lat="43.35214" lon="5.44411">
        <ele>141.39</ele>
        <time>2021-05-23T10:09:39.000Z</time>
      </trkpt>
      <trkpt lat="43.35208" lon="5.44438">
        <ele>141.31</ele>
        <time>2021-05-23T10:09:45.000Z</time>
      </trkpt>
      <trkpt lat="43.35188" lon="5.44447">
        <ele>140.86</ele>
        <time>2021-05-23T10:09:49.000Z</time>
      </trkpt>
      <trkpt lat="43.35172" lon="5.44459">
        <ele>140.59</ele>
        <time>2021-05-23T10:09:54.000Z</time>
      </trkpt>
      <trkpt lat="43.35162" lon="5.44436">
        <ele>138.58</ele>
        <time>2021-05-23T10:10:30.000Z</time>
      </trkpt>
    </trkseg>
  </trk>
</gpx>